<?xml version='1.0' encoding='UTF-8'?><gpx version="1.1" creator="JPX - https://github.com/jenetics/jpx" xmlns="http://www.topografix.com/GPX/1/1"><trk><trkseg><trkpt lat="45.82570376697276" lon="8.678051248360735"><ele>261.0</ele><time>2026-04-10T13:31:23Z</time></trkpt><trkpt lat="45.82561299264221" lon="8.678110368676556"><ele>261.0</ele><time>2026-04-10T13:31:25Z</time></trkpt><trkpt lat="45.82552866809537" lon="8.678224752850548"><ele>261.0</ele><time>2026-04-10T13:31:27Z</time></trkpt><trkpt lat="45.82545070760485" lon="8.678322165909623"><ele>261.0</ele><time>2026-04-10T13:31:29Z</time></trkpt><trkpt lat="45.82534828317211" lon="8.67841171073436"><ele>261.0</ele><time>2026-04-10T13:31:31Z</time></trkpt><trkpt lat="45.82526146498598" lon="8.678458270289639"><ele>261.0</ele><time>2026-04-10T13:31:32Z</time></trkpt><trkpt lat="45.82518625227806" lon="8.678493000144215"><ele>261.0</ele><time>2026-04-10T13:31:33Z</time></trkpt><trkpt lat="45.82511762226462" lon="8.678563063986225"><ele>261.0</ele><time>2026-04-10T13:31:34Z</time></trkpt><trkpt lat="45.825044073934514" lon="8.678607860012084"><ele>261.0</ele><time>2026-04-10T13:31:35Z</time></trkpt><trkpt lat="45.824986875026916" lon="8.678661287020953"><ele>261.0</ele><time>2026-04-10T13:31:36Z</time></trkpt><trkpt lat="45.82493910447918" lon="8.678732500797707"><ele>261.0</ele><time>2026-04-10T13:31:37Z</time></trkpt><trkpt lat="45.82488069752603" lon="8.678785774961401"><ele>261.0</ele><time>2026-04-10T13:31:38Z</time></trkpt><trkpt lat="45.82481522851563" lon="8.678857372985393"><ele>259.5</ele><time>2026-04-10T13:31:39Z</time></trkpt><trkpt lat="45.82476492386292" lon="8.67893993968763"><ele>258.0</ele><time>2026-04-10T13:31:40Z</time></trkpt><trkpt lat="45.82469817759151" lon="8.679004634084354"><ele>256.5</ele><time>2026-04-10T13:31:41Z</time></trkpt><trkpt lat="45.82464370955753" lon="8.679082052209656"><ele>255.0</ele><time>2026-04-10T13:31:42Z</time></trkpt><trkpt lat="45.82458980651466" lon="8.679156408489318"><ele>253.5</ele><time>2026-04-10T13:31:43Z</time></trkpt><trkpt lat="45.82453392607998" lon="8.679229738992518"><ele>252.0</ele><time>2026-04-10T13:31:44Z</time></trkpt><trkpt lat="45.82448662143826" lon="8.67929979270497"><ele>252.0</ele><time>2026-04-10T13:31:45Z</time></trkpt><trkpt lat="45.82442858876597" lon="8.679348278712048"><ele>252.0</ele><time>2026-04-10T13:31:46Z</time></trkpt><trkpt lat="45.82437064676147" lon="8.67941820164384"><ele>252.0</ele><time>2026-04-10T13:31:47Z</time></trkpt><trkpt lat="45.82429761856975" lon="8.679511063149217"><ele>252.0</ele><time>2026-04-10T13:31:48Z</time></trkpt><trkpt lat="45.82423460674427" lon="8.67960217365163"><ele>252.0</ele><time>2026-04-10T13:31:49Z</time></trkpt><trkpt lat="45.824173417580894" lon="8.67969751525593"><ele>252.0</ele><time>2026-04-10T13:31:50Z</time></trkpt><trkpt lat="45.82412344332938" lon="8.679778262848751"><ele>252.33333333333334</ele><time>2026-04-10T13:31:51Z</time></trkpt><trkpt lat="45.824061494842375" lon="8.679883007516715"><ele>252.66666666666669</ele><time>2026-04-10T13:31:52Z</time></trkpt><trkpt lat="45.82400451627085" lon="8.680004617706157"><ele>253.0</ele><time>2026-04-10T13:31:53Z</time></trkpt><trkpt lat="45.823971078116955" lon="8.680112129293477"><ele>253.33333333333334</ele><time>2026-04-10T13:31:54Z</time></trkpt><trkpt lat="45.82393128303708" lon="8.680196912148608"><ele>253.66666666666669</ele><time>2026-04-10T13:31:55Z</time></trkpt><trkpt lat="45.82388902968671" lon="8.680294369286479"><ele>254.0</ele><time>2026-04-10T13:31:56Z</time></trkpt><trkpt lat="45.823841110505526" lon="8.680389587002255"><ele>254.00000000000003</ele><time>2026-04-10T13:31:57Z</time></trkpt><trkpt lat="45.82379210539957" lon="8.680500315702512"><ele>254.0</ele><time>2026-04-10T13:31:58Z</time></trkpt><trkpt lat="45.823705876905" lon="8.680552506572216"><ele>254.0</ele><time>2026-04-10T13:31:59Z</time></trkpt><trkpt lat="45.8236487343976" lon="8.680623184181712"><ele>254.0</ele><time>2026-04-10T13:32:00Z</time></trkpt><trkpt lat="45.82359141975894" lon="8.68070551885381"><ele>254.00000000000003</ele><time>2026-04-10T13:32:01Z</time></trkpt><trkpt lat="45.823525986218804" lon="8.680798200806823"><ele>254.0</ele><time>2026-04-10T13:32:02Z</time></trkpt><trkpt lat="45.82347317339931" lon="8.680881915988882"><ele>253.00000000000003</ele><time>2026-04-10T13:32:03Z</time></trkpt><trkpt lat="45.823427358204825" lon="8.680965835653348"><ele>252.0</ele><time>2026-04-10T13:32:04Z</time></trkpt><trkpt lat="45.82336593877333" lon="8.681075030508095"><ele>251.0</ele><time>2026-04-10T13:32:05Z</time></trkpt><trkpt lat="45.823308434342394" lon="8.68117233674609"><ele>250.0</ele><time>2026-04-10T13:32:06Z</time></trkpt><trkpt lat="45.82326031010304" lon="8.68127034850572"><ele>249.00000000000003</ele><time>2026-04-10T13:32:07Z</time></trkpt><trkpt lat="45.82321676763241" lon="8.681354711906089"><ele>248.0</ele><time>2026-04-10T13:32:08Z</time></trkpt><trkpt lat="45.82317482332797" lon="8.681434252605465"><ele>248.00000000000003</ele><time>2026-04-10T13:32:09Z</time></trkpt><trkpt lat="45.8231295645262" lon="8.681518504959953"><ele>248.0</ele><time>2026-04-10T13:32:10Z</time></trkpt><trkpt lat="45.82308925496897" lon="8.68159609175298"><ele>248.0</ele><time>2026-04-10T13:32:11Z</time></trkpt><trkpt lat="45.823052319733684" lon="8.681688464217105"><ele>248.0</ele><time>2026-04-10T13:32:12Z</time></trkpt><trkpt lat="45.82299951274863" lon="8.681795263273601"><ele>248.00000000000003</ele><time>2026-04-10T13:32:13Z</time></trkpt><trkpt lat="45.82295466672478" lon="8.681876338017027"><ele>248.0</ele><time>2026-04-10T13:32:14Z</time></trkpt><trkpt lat="45.82290245226235" lon="8.68197271075491"><ele>247.16666666666669</ele><time>2026-04-10T13:32:15Z</time></trkpt><trkpt lat="45.822859311476186" lon="8.68207661027161"><ele>246.33333333333334</ele><time>2026-04-10T13:32:16Z</time></trkpt><trkpt lat="45.82280569205729" lon="8.682177772533187"><ele>245.5</ele><time>2026-04-10T13:32:17Z</time></trkpt><trkpt lat="45.82274934122681" lon="8.682277654545771"><ele>244.66666666666669</ele><time>2026-04-10T13:32:18Z</time></trkpt><trkpt lat="45.82269767260308" lon="8.682379770058786"><ele>243.83333333333334</ele><time>2026-04-10T13:32:19Z</time></trkpt><trkpt lat="45.822656051741596" lon="8.682486519241762"><ele>243.0</ele><time>2026-04-10T13:32:20Z</time></trkpt><trkpt lat="45.822608496521234" lon="8.68257770719881"><ele>243.0</ele><time>2026-04-10T13:32:21Z</time></trkpt><trkpt lat="45.822552809363856" lon="8.682656245060043"><ele>243.0</ele><time>2026-04-10T13:32:22Z</time></trkpt><trkpt lat="45.82249413911208" lon="8.682747627671795"><ele>243.0</ele><time>2026-04-10T13:32:23Z</time></trkpt><trkpt lat="45.82243964947309" lon="8.68284730721067"><ele>243.0</ele><time>2026-04-10T13:32:23.999Z</time></trkpt><trkpt lat="45.822378722865054" lon="8.682961533270326"><ele>243.0</ele><time>2026-04-10T13:32:24.999Z</time></trkpt><trkpt lat="45.82231615669912" lon="8.683087099553532"><ele>243.8</ele><time>2026-04-10T13:32:25.999Z</time></trkpt><trkpt lat="45.82225685453505" lon="8.683213257892065"><ele>244.60000000000002</ele><time>2026-04-10T13:32:26.999Z</time></trkpt><trkpt lat="45.82219511050895" lon="8.683325225083118"><ele>245.39999999999998</ele><time>2026-04-10T13:32:27.999Z</time></trkpt><trkpt lat="45.82213042649834" lon="8.683425547727964"><ele>246.2</ele><time>2026-04-10T13:32:28.999Z</time></trkpt><trkpt lat="45.82205951393382" lon="8.683528361764633"><ele>247.0</ele><time>2026-04-10T13:32:29.999Z</time></trkpt><trkpt lat="45.82199302267901" lon="8.683627565887301"><ele>246.6</ele><time>2026-04-10T13:32:30.999Z</time></trkpt><trkpt lat="45.82193251558658" lon="8.683732570002107"><ele>246.2</ele><time>2026-04-10T13:32:31.999Z</time></trkpt><trkpt lat="45.82186970826117" lon="8.683835548905611"><ele>245.8</ele><time>2026-04-10T13:32:32.999Z</time></trkpt><trkpt lat="45.82181019126654" lon="8.68394672065601"><ele>245.4</ele><time>2026-04-10T13:32:33.999Z</time></trkpt><trkpt lat="45.82174326119113" lon="8.684056322763308"><ele>245.0</ele><time>2026-04-10T13:32:34.999Z</time></trkpt><trkpt lat="45.82167799674455" lon="8.684160771331758"><ele>245.00000000000003</ele><time>2026-04-10T13:32:35.999Z</time></trkpt><trkpt lat="45.82161495774156" lon="8.68424522073408"><ele>245.0</ele><time>2026-04-10T13:32:36.999Z</time></trkpt><trkpt lat="45.82155429722908" lon="8.684324098264215"><ele>245.0</ele><time>2026-04-10T13:32:37.999Z</time></trkpt><trkpt lat="45.821503248134825" lon="8.684399731587819"><ele>245.0</ele><time>2026-04-10T13:32:38.999Z</time></trkpt><trkpt lat="45.82145046382375" lon="8.684461275715803"><ele>245.00000000000003</ele><time>2026-04-10T13:32:39.999Z</time></trkpt><trkpt lat="45.82137039793654" lon="8.684584212949023"><ele>245.0</ele><time>2026-04-10T13:32:41.999Z</time></trkpt><trkpt lat="45.82128604778673" lon="8.684669806539917"><ele>244.66666666666669</ele><time>2026-04-10T13:32:44Z</time></trkpt><trkpt lat="45.8212335312263" lon="8.684731499150125"><ele>244.33333333333334</ele><time>2026-04-10T13:32:45Z</time></trkpt><trkpt lat="45.821136549132135" lon="8.684793023741992"><ele>244.0</ele><time>2026-04-10T13:32:47Z</time></trkpt><trkpt lat="45.82107448727775" lon="8.684811335274544"><ele>243.66666666666669</ele><time>2026-04-10T13:32:48Z</time></trkpt><trkpt lat="45.82099530742893" lon="8.684781524522437"><ele>243.33333333333334</ele><time>2026-04-10T13:32:50Z</time></trkpt><trkpt lat="45.82093375840625" lon="8.684696319429117"><ele>243.0</ele><time>2026-04-10T13:32:52Z</time></trkpt><trkpt lat="45.820873664546596" lon="8.684647697972391"><ele>243.0</ele><time>2026-04-10T13:32:55Z</time></trkpt><trkpt lat="45.820804952520604" lon="8.684665553143732"><ele>243.0</ele><time>2026-04-10T13:32:58Z</time></trkpt><trkpt lat="45.82073176004912" lon="8.684824772712751"><ele>243.0</ele><time>2026-04-10T13:33:01Z</time></trkpt><trkpt lat="45.82069400220465" lon="8.68491308452569"><ele>243.0</ele><time>2026-04-10T13:33:02Z</time></trkpt><trkpt lat="45.82063675788483" lon="8.685006830878441"><ele>243.0</ele><time>2026-04-10T13:33:05Z</time></trkpt><trkpt lat="45.82057975611906" lon="8.685097538469286"><ele>243.0</ele><time>2026-04-10T13:33:07Z</time></trkpt><trkpt lat="45.82049428488629" lon="8.685221465504481"><ele>242.2</ele><time>2026-04-10T13:33:09Z</time></trkpt><trkpt lat="45.82042508166859" lon="8.685307102581836"><ele>241.4</ele><time>2026-04-10T13:33:11Z</time></trkpt><trkpt lat="45.82035227062708" lon="8.685425237236752"><ele>240.59999999999997</ele><time>2026-04-10T13:33:13Z</time></trkpt><trkpt lat="45.82028239013878" lon="8.685550815589448"><ele>239.79999999999998</ele><time>2026-04-10T13:33:15Z</time></trkpt><trkpt lat="45.82020696848895" lon="8.685673105800012"><ele>239.0</ele><time>2026-04-10T13:33:17Z</time></trkpt><trkpt lat="45.82014857452623" lon="8.68574035539729"><ele>239.0</ele><time>2026-04-10T13:33:19Z</time></trkpt><trkpt lat="45.82008755964522" lon="8.685824171432992"><ele>238.99999999999997</ele><time>2026-04-10T13:33:21Z</time></trkpt><trkpt lat="45.819998298938415" lon="8.685920321883788"><ele>238.99999999999997</ele><time>2026-04-10T13:33:23Z</time></trkpt><trkpt lat="45.819926711020216" lon="8.686004215164145"><ele>239.0</ele><time>2026-04-10T13:33:25Z</time></trkpt><trkpt lat="45.81986955915628" lon="8.686044981465896"><ele>239.0</ele><time>2026-04-10T13:33:26Z</time></trkpt><trkpt lat="45.819772235974206" lon="8.686147948962144"><ele>241.79999999999998</ele><time>2026-04-10T13:33:28Z</time></trkpt><trkpt lat="45.81969058962157" lon="8.686244983681492"><ele>244.59999999999997</ele><time>2026-04-10T13:33:30Z</time></trkpt><trkpt lat="45.81960480951625" lon="8.686398692853688"><ele>247.4</ele><time>2026-04-10T13:33:32Z</time></trkpt><trkpt lat="45.819560879275876" lon="8.686481959149958"><ele>250.2</ele><time>2026-04-10T13:33:33Z</time></trkpt><trkpt lat="45.81951599733098" lon="8.686556704479576"><ele>253.0</ele><time>2026-04-10T13:33:34Z</time></trkpt><trkpt lat="45.81946392980302" lon="8.68662302407609"><ele>252.99999999999997</ele><time>2026-04-10T13:33:35Z</time></trkpt><trkpt lat="45.81937754331384" lon="8.686715769300013"><ele>253.0</ele><time>2026-04-10T13:33:37Z</time></trkpt><trkpt lat="45.81931291524437" lon="8.686774678564758"><ele>253.0</ele><time>2026-04-10T13:33:38Z</time></trkpt><trkpt lat="45.81924711054358" lon="8.686845019000483"><ele>253.0</ele><time>2026-04-10T13:33:39Z</time></trkpt><trkpt lat="45.81919551974839" lon="8.686904189239034"><ele>252.99999999999997</ele><time>2026-04-10T13:33:40Z</time></trkpt><trkpt lat="45.81914455818188" lon="8.686966616154553"><ele>253.0</ele><time>2026-04-10T13:33:41Z</time></trkpt><trkpt lat="45.81909513709952" lon="8.687039634440035"><ele>251.2</ele><time>2026-04-10T13:33:42Z</time></trkpt><trkpt lat="45.81899199594883" lon="8.687150812816876"><ele>249.4</ele><time>2026-04-10T13:33:44Z</time></trkpt><trkpt lat="45.81892519219161" lon="8.687246925874227"><ele>247.59999999999997</ele><time>2026-04-10T13:33:46Z</time></trkpt><trkpt lat="45.81886581338481" lon="8.687281541274084"><ele>245.79999999999998</ele><time>2026-04-10T13:34:00Z</time></trkpt><trkpt lat="45.818804115617034" lon="8.687324673213627"><ele>244.0</ele><time>2026-04-10T13:34:18Z</time></trkpt><trkpt lat="45.818706619870134" lon="8.687293262060635"><ele>244.0</ele><time>2026-04-10T13:34:20Z</time></trkpt><trkpt lat="45.81860227892315" lon="8.687304223137776"><ele>243.99999999999997</ele><time>2026-04-10T13:34:22Z</time></trkpt><trkpt lat="45.81853136544681" lon="8.687330199845745"><ele>243.99999999999997</ele><time>2026-04-10T13:34:23Z</time></trkpt><trkpt lat="45.818421891513786" lon="8.687360439496272"><ele>244.0</ele><time>2026-04-10T13:34:24.999Z</time></trkpt><trkpt lat="45.81829933501738" lon="8.687416099969022"><ele>244.0</ele><time>2026-04-10T13:34:26.999Z</time></trkpt><trkpt lat="45.81818159100801" lon="8.687439669892083"><ele>242.2</ele><time>2026-04-10T13:34:28.999Z</time></trkpt><trkpt lat="45.81806929731439" lon="8.687434290827866"><ele>240.39999999999998</ele><time>2026-04-10T13:34:30.999Z</time></trkpt><trkpt lat="45.81800611753793" lon="8.687407744589574"><ele>238.6</ele><time>2026-04-10T13:34:31.999Z</time></trkpt><trkpt lat="45.817918084183816" lon="8.687346173270702"><ele>236.8</ele><time>2026-04-10T13:34:33.999Z</time></trkpt><trkpt lat="45.81782352397622" lon="8.687277345506548"><ele>235.0</ele><time>2026-04-10T13:34:35.999Z</time></trkpt><trkpt lat="45.81775783678648" lon="8.687190680009216"><ele>234.99999999999997</ele><time>2026-04-10T13:34:37.999Z</time></trkpt><trkpt lat="45.81773928146734" lon="8.6871021581119"><ele>235.0</ele><time>2026-04-10T13:34:40.999Z</time></trkpt><trkpt lat="45.81767716795606" lon="8.686947619158103"><ele>235.0</ele><time>2026-04-10T13:34:43.999Z</time></trkpt><trkpt lat="45.81761166463911" lon="8.686866274901234"><ele>235.0</ele><time>2026-04-10T13:34:44.999Z</time></trkpt><trkpt lat="45.8175549748969" lon="8.686817519462519"><ele>234.99999999999997</ele><time>2026-04-10T13:34:45.999Z</time></trkpt><trkpt lat="45.81749246746955" lon="8.686791898480632"><ele>235.0</ele><time>2026-04-10T13:34:47.999Z</time></trkpt><trkpt lat="45.81743123154881" lon="8.686769852016832"><ele>234.83333333333331</ele><time>2026-04-10T13:34:51Z</time></trkpt><trkpt lat="45.81734637843165" lon="8.686752487122947"><ele>234.66666666666666</ele><time>2026-04-10T13:34:55Z</time></trkpt><trkpt lat="45.817259448686706" lon="8.686747267868896"><ele>234.5</ele><time>2026-04-10T13:34:57Z</time></trkpt><trkpt lat="45.81718174542048" lon="8.686717991896591"><ele>234.33333333333331</ele><time>2026-04-10T13:34:58Z</time></trkpt><trkpt lat="45.81709874245412" lon="8.686633949183811"><ele>234.16666666666666</ele><time>2026-04-10T13:35:00Z</time></trkpt><trkpt lat="45.817038973120646" lon="8.686542237344526"><ele>234.0</ele><time>2026-04-10T13:35:03Z</time></trkpt><trkpt lat="45.81697673965659" lon="8.686491972763353"><ele>234.0</ele><time>2026-04-10T13:35:04Z</time></trkpt><trkpt lat="45.81688865844073" lon="8.686429249017813"><ele>233.99999999999997</ele><time>2026-04-10T13:35:06Z</time></trkpt><trkpt lat="45.81682364404689" lon="8.686433851968346"><ele>233.99999999999997</ele><time>2026-04-10T13:35:08Z</time></trkpt><trkpt lat="45.81671890863258" lon="8.686418360849098"><ele>234.0</ele><time>2026-04-10T13:35:10Z</time></trkpt><trkpt lat="45.816643316955" lon="8.686455845665659"><ele>234.0</ele><time>2026-04-10T13:35:12Z</time></trkpt><trkpt lat="45.816544012292454" lon="8.686515556282759"><ele>234.2</ele><time>2026-04-10T13:35:14Z</time></trkpt><trkpt lat="45.816436955015405" lon="8.686571663947564"><ele>234.39999999999998</ele><time>2026-04-10T13:35:16Z</time></trkpt><trkpt lat="45.81636850733725" lon="8.686653522419308"><ele>234.6</ele><time>2026-04-10T13:35:18Z</time></trkpt><trkpt lat="45.81630500747628" lon="8.68669098413421"><ele>234.8</ele><time>2026-04-10T13:35:20Z</time></trkpt><trkpt lat="45.81620118562868" lon="8.686783905478537"><ele>235.0</ele><time>2026-04-10T13:35:22Z</time></trkpt><trkpt lat="45.816113040608066" lon="8.686882287833482"><ele>235.2</ele><time>2026-04-10T13:35:24Z</time></trkpt><trkpt lat="45.81605531369095" lon="8.686963372011405"><ele>235.4</ele><time>2026-04-10T13:35:26Z</time></trkpt><trkpt lat="45.8159620093437" lon="8.687042905610278"><ele>235.60000000000002</ele><time>2026-04-10T13:35:28Z</time></trkpt><trkpt lat="45.81587912187908" lon="8.687133113334252"><ele>235.8</ele><time>2026-04-10T13:35:30Z</time></trkpt><trkpt lat="45.815799051631046" lon="8.687232311087147"><ele>236.0</ele><time>2026-04-10T13:35:32Z</time></trkpt><trkpt lat="45.81573365906186" lon="8.687264152447542"><ele>236.0</ele><time>2026-04-10T13:35:33Z</time></trkpt><trkpt lat="45.81568750393856" lon="8.68733549900263"><ele>236.00000000000003</ele><time>2026-04-10T13:35:34Z</time></trkpt><trkpt lat="45.81560505619759" lon="8.687406428031817"><ele>236.00000000000003</ele><time>2026-04-10T13:35:36Z</time></trkpt><trkpt lat="45.81551281997342" lon="8.687506875287433"><ele>236.0</ele><time>2026-04-10T13:35:38Z</time></trkpt><trkpt lat="45.81542917773361" lon="8.687581005909168"><ele>236.0</ele><time>2026-04-10T13:35:40Z</time></trkpt><trkpt lat="45.81535125176241" lon="8.687603312069768"><ele>236.0</ele><time>2026-04-10T13:35:42Z</time></trkpt><trkpt lat="45.815261663931174" lon="8.687567656302722"><ele>236.00000000000003</ele><time>2026-04-10T13:35:44Z</time></trkpt><trkpt lat="45.81517705820479" lon="8.687514404995033"><ele>236.00000000000003</ele><time>2026-04-10T13:35:46Z</time></trkpt><trkpt lat="45.81509039326909" lon="8.68742206982087"><ele>236.0</ele><time>2026-04-10T13:35:48Z</time></trkpt><trkpt lat="45.81500358006825" lon="8.68736633357402"><ele>236.0</ele><time>2026-04-10T13:35:50Z</time></trkpt><trkpt lat="45.81491345282493" lon="8.6873230707622"><ele>236.00000000000003</ele><time>2026-04-10T13:35:52Z</time></trkpt><trkpt lat="45.81485409253806" lon="8.687266236295477"><ele>236.0</ele><time>2026-04-10T13:35:55Z</time></trkpt><trkpt lat="45.81480235793866" lon="8.687206329189346"><ele>236.0</ele><time>2026-04-10T13:35:57Z</time></trkpt><trkpt lat="45.81473665186339" lon="8.68715672998434"><ele>236.0</ele><time>2026-04-10T13:35:58Z</time></trkpt><trkpt lat="45.81467886948643" lon="8.687085003134817"><ele>236.00000000000003</ele><time>2026-04-10T13:35:59Z</time></trkpt><trkpt lat="45.814571731984486" lon="8.687008481565679"><ele>236.0</ele><time>2026-04-10T13:36:01Z</time></trkpt><trkpt lat="45.814509504517176" lon="8.686950269659143"><ele>235.8</ele><time>2026-04-10T13:36:03Z</time></trkpt><trkpt lat="45.814438133585945" lon="8.68689800001733"><ele>235.60000000000002</ele><time>2026-04-10T13:36:05Z</time></trkpt><trkpt lat="45.81433207366335" lon="8.68681354545144"><ele>235.4</ele><time>2026-04-10T13:36:07Z</time></trkpt><trkpt lat="45.8142361348884" lon="8.686723515599303"><ele>235.2</ele><time>2026-04-10T13:36:09Z</time></trkpt><trkpt lat="45.81417130007739" lon="8.686686549508002"><ele>235.0</ele><time>2026-04-10T13:36:11Z</time></trkpt><trkpt lat="45.81411087045912" lon="8.686646627069365"><ele>234.99999999999997</ele><time>2026-04-10T13:36:14.999Z</time></trkpt><trkpt lat="45.81403761228459" lon="8.686619029432366"><ele>235.0</ele><time>2026-04-10T13:36:20.999Z</time></trkpt><trkpt lat="45.81399169788178" lon="8.68672042722053"><ele>235.0</ele><time>2026-04-10T13:36:23.999Z</time></trkpt><trkpt lat="45.81399585506214" lon="8.6868234055123"><ele>235.0</ele><time>2026-04-10T13:36:26.999Z</time></trkpt><trkpt lat="45.81398657572671" lon="8.686930521443067"><ele>234.99999999999997</ele><time>2026-04-10T13:36:29.999Z</time></trkpt><trkpt lat="45.813934848394126" lon="8.68702947885637"><ele>235.0</ele><time>2026-04-10T13:36:31.999Z</time></trkpt><trkpt lat="45.81388517322591" lon="8.68709365449883"><ele>235.28571428571428</ele><time>2026-04-10T13:36:33.999Z</time></trkpt><trkpt lat="45.813824535592" lon="8.687183146157224"><ele>235.57142857142856</ele><time>2026-04-10T13:36:37.999Z</time></trkpt><trkpt lat="45.81378831914767" lon="8.687257950848576"><ele>235.85714285714283</ele><time>2026-04-10T13:36:40.999Z</time></trkpt><trkpt lat="45.8137317372026" lon="8.687325533971325"><ele>236.1428571428571</ele><time>2026-04-10T13:36:44.999Z</time></trkpt><trkpt lat="45.813683252261725" lon="8.687409733990286"><ele>236.42857142857142</ele><time>2026-04-10T13:37:01Z</time></trkpt><trkpt lat="45.81364318707019" lon="8.687485074700954"><ele>236.71428571428567</ele><time>2026-04-10T13:37:06Z</time></trkpt><trkpt lat="45.81362121708544" lon="8.68757061701602"><ele>236.99999999999997</ele><time>2026-04-10T13:37:18Z</time></trkpt><trkpt lat="45.8136052682282" lon="8.68766054836627"><ele>236.99999999999997</ele><time>2026-04-10T13:37:21Z</time></trkpt><trkpt lat="45.81353578691405" lon="8.687720432647966"><ele>237.0</ele><time>2026-04-10T13:37:23Z</time></trkpt><trkpt lat="45.81350011314312" lon="8.68780121833255"><ele>236.99999999999997</ele><time>2026-04-10T13:37:26Z</time></trkpt><trkpt lat="45.81343923818373" lon="8.687835812714342"><ele>236.99999999999997</ele><time>2026-04-10T13:37:30Z</time></trkpt><trkpt lat="45.81338428396566" lon="8.687912980440526"><ele>237.0</ele><time>2026-04-10T13:37:34Z</time></trkpt><trkpt lat="45.81332532432901" lon="8.687966924291"><ele>236.99999999999997</ele><time>2026-04-10T13:37:37Z</time></trkpt><trkpt lat="45.813252304372355" lon="8.687981073156372"><ele>236.99999999999997</ele><time>2026-04-10T13:38:22Z</time></trkpt><trkpt lat="45.81313571790094" lon="8.688076536411947"><ele>237.33333333333334</ele><time>2026-04-10T13:38:25Z</time></trkpt><trkpt lat="45.81306785105271" lon="8.688125664187472"><ele>237.66666666666669</ele><time>2026-04-10T13:38:26Z</time></trkpt><trkpt lat="45.813003274483876" lon="8.688207268879081"><ele>238.0</ele><time>2026-04-10T13:38:27Z</time></trkpt><trkpt lat="45.81292266853446" lon="8.688311962336924"><ele>238.33333333333334</ele><time>2026-04-10T13:38:28Z</time></trkpt><trkpt lat="45.81286708781345" lon="8.688396569016161"><ele>238.66666666666669</ele><time>2026-04-10T13:38:29Z</time></trkpt><trkpt lat="45.812825499171005" lon="8.68849921833719"><ele>239.0</ele><time>2026-04-10T13:38:30Z</time></trkpt><trkpt lat="45.81278250814141" lon="8.68861126342466"><ele>238.00000000000003</ele><time>2026-04-10T13:38:32Z</time></trkpt><trkpt lat="45.812721234059936" lon="8.6886644177488"><ele>237.0</ele><time>2026-04-10T13:38:34Z</time></trkpt><trkpt lat="45.81265073736282" lon="8.688689701450148"><ele>236.0</ele><time>2026-04-10T13:38:37Z</time></trkpt><trkpt lat="45.81257536757199" lon="8.688724031262028"><ele>235.0</ele><time>2026-04-10T13:38:39.999Z</time></trkpt><trkpt lat="45.81247048336149" lon="8.68877884869775"><ele>234.00000000000003</ele><time>2026-04-10T13:39:05Z</time></trkpt><trkpt lat="45.8123716591682" lon="8.688851314828673"><ele>233.0</ele><time>2026-04-10T13:39:07Z</time></trkpt><trkpt lat="45.81231409198871" lon="8.688900398318815"><ele>233.66666666666669</ele><time>2026-04-10T13:39:08Z</time></trkpt><trkpt lat="45.812322946712804" lon="8.689029651888099"><ele>234.33333333333334</ele><time>2026-04-10T13:39:11Z</time></trkpt><trkpt lat="45.81236521759641" lon="8.689113917052854"><ele>235.0</ele><time>2026-04-10T13:39:13Z</time></trkpt><trkpt lat="45.812377559662586" lon="8.68920441741239"><ele>235.66666666666669</ele><time>2026-04-10T13:39:16Z</time></trkpt><trkpt lat="45.81234947789563" lon="8.689296662994968"><ele>236.33333333333334</ele><time>2026-04-10T13:39:20Z</time></trkpt><trkpt lat="45.81233761144275" lon="8.689406870212162"><ele>237.0</ele><time>2026-04-10T13:39:23Z</time></trkpt><trkpt lat="45.81230309066102" lon="8.689530096765235"><ele>236.99999999999997</ele><time>2026-04-10T13:39:25Z</time></trkpt><trkpt lat="45.812275700843436" lon="8.689638354232919"><ele>237.0</ele><time>2026-04-10T13:39:27Z</time></trkpt><trkpt lat="45.812252982082136" lon="8.689725161777092"><ele>236.99999999999997</ele><time>2026-04-10T13:39:30Z</time></trkpt><trkpt lat="45.812246903652486" lon="8.68982202088258"><ele>236.99999999999997</ele><time>2026-04-10T13:39:32Z</time></trkpt><trkpt lat="45.81224529384687" lon="8.689939016099213"><ele>237.0</ele><time>2026-04-10T13:39:37Z</time></trkpt><trkpt lat="45.81225558320934" lon="8.690028745898292"><ele>236.99999999999997</ele><time>2026-04-10T13:39:39Z</time></trkpt><trkpt lat="45.81227565375503" lon="8.690117530948468"><ele>236.99999999999997</ele><time>2026-04-10T13:39:41Z</time></trkpt><trkpt lat="45.812295814012444" lon="8.690226343085214"><ele>237.1428571428571</ele><time>2026-04-10T13:39:43Z</time></trkpt><trkpt lat="45.81228801601573" lon="8.690319795148081"><ele>237.28571428571428</ele><time>2026-04-10T13:39:45Z</time></trkpt><trkpt lat="45.81225626700977" lon="8.690426477988614"><ele>237.42857142857142</ele><time>2026-04-10T13:39:47Z</time></trkpt><trkpt lat="45.812213785565255" lon="8.69050048607382"><ele>237.57142857142856</ele><time>2026-04-10T13:39:49Z</time></trkpt><trkpt lat="45.81214414785353" lon="8.69055460257362"><ele>237.71428571428572</ele><time>2026-04-10T13:39:51Z</time></trkpt><trkpt lat="45.812077552581954" lon="8.69057688078052"><ele>237.85714285714286</ele><time>2026-04-10T13:39:53Z</time></trkpt><trkpt lat="45.81201005020364" lon="8.690554608735185"><ele>238.0</ele><time>2026-04-10T13:39:55Z</time></trkpt><trkpt lat="45.81191335142056" lon="8.690605413434888"><ele>238.0</ele><time>2026-04-10T13:40:00Z</time></trkpt><trkpt lat="45.81188125756842" lon="8.690768281363336"><ele>238.0</ele><time>2026-04-10T13:40:02Z</time></trkpt><trkpt lat="45.81185988301928" lon="8.690860280130195"><ele>238.0</ele><time>2026-04-10T13:40:03Z</time></trkpt><trkpt lat="45.81185169715719" lon="8.69096992191657"><ele>238.0</ele><time>2026-04-10T13:40:06Z</time></trkpt><trkpt lat="45.81187326201666" lon="8.691107266292907"><ele>238.0</ele><time>2026-04-10T13:40:08Z</time></trkpt><trkpt lat="45.81196080510848" lon="8.691193422074674"><ele>238.2</ele><time>2026-04-10T13:40:10Z</time></trkpt><trkpt lat="45.81203186525159" lon="8.691240502207103"><ele>238.4</ele><time>2026-04-10T13:40:12Z</time></trkpt><trkpt lat="45.81210939906482" lon="8.691333661986011"><ele>238.59999999999997</ele><time>2026-04-10T13:40:14Z</time></trkpt><trkpt lat="45.812171420287015" lon="8.69143824471479"><ele>238.79999999999998</ele><time>2026-04-10T13:40:16Z</time></trkpt><trkpt lat="45.812199958188984" lon="8.691616170313441"><ele>239.0</ele><time>2026-04-10T13:40:18Z</time></trkpt><trkpt lat="45.81221849349058" lon="8.691703696465048"><ele>239.0</ele><time>2026-04-10T13:40:19Z</time></trkpt><trkpt lat="45.812274085609445" lon="8.691799028145207"><ele>238.99999999999997</ele><time>2026-04-10T13:40:21Z</time></trkpt><trkpt lat="45.81230824922331" lon="8.69188550197095"><ele>238.99999999999997</ele><time>2026-04-10T13:40:29Z</time></trkpt><trkpt lat="45.81228083135418" lon="8.691966848437994"><ele>239.0</ele><time>2026-04-10T13:40:32Z</time></trkpt><trkpt lat="45.81213916130869" lon="8.692023955791681"><ele>239.0</ele><time>2026-04-10T13:40:34Z</time></trkpt><trkpt lat="45.812065263960385" lon="8.692103412334925"><ele>238.0</ele><time>2026-04-10T13:40:35Z</time></trkpt><trkpt lat="45.811988709263865" lon="8.69220477992697"><ele>236.99999999999997</ele><time>2026-04-10T13:40:36Z</time></trkpt><trkpt lat="45.81189915431466" lon="8.692339246021167"><ele>235.99999999999997</ele><time>2026-04-10T13:40:37Z</time></trkpt><trkpt lat="45.81182831747375" lon="8.692452014296693"><ele>235.0</ele><time>2026-04-10T13:40:38Z</time></trkpt><trkpt lat="45.81176923165424" lon="8.692512669787309"><ele>234.0</ele><time>2026-04-10T13:40:39Z</time></trkpt><trkpt lat="45.811672308195604" lon="8.692590366501301"><ele>236.16666666666666</ele><time>2026-04-10T13:40:41Z</time></trkpt><trkpt lat="45.81157639588957" lon="8.692591220665587"><ele>238.33333333333331</ele><time>2026-04-10T13:40:43Z</time></trkpt><trkpt lat="45.81150844142513" lon="8.69257919317942"><ele>240.5</ele><time>2026-04-10T13:40:44Z</time></trkpt><trkpt lat="45.811436371539486" lon="8.692590128460274"><ele>242.66666666666666</ele><time>2026-04-10T13:40:45Z</time></trkpt><trkpt lat="45.811365518995395" lon="8.692606036041784"><ele>244.83333333333331</ele><time>2026-04-10T13:40:46Z</time></trkpt><trkpt lat="45.81130082299825" lon="8.692619023016896"><ele>247.0</ele><time>2026-04-10T13:40:47Z</time></trkpt><trkpt lat="45.81120151557328" lon="8.692656655728689"><ele>246.99999999999997</ele><time>2026-04-10T13:40:49Z</time></trkpt><trkpt lat="45.811141870256115" lon="8.692695707260453"><ele>247.0</ele><time>2026-04-10T13:40:50Z</time></trkpt><trkpt lat="45.811042813147544" lon="8.692750200662566"><ele>247.0</ele><time>2026-04-10T13:40:52Z</time></trkpt><trkpt lat="45.810957631814716" lon="8.692818840202378"><ele>247.0</ele><time>2026-04-10T13:40:54Z</time></trkpt><trkpt lat="45.810876511642014" lon="8.69289876233865"><ele>246.99999999999997</ele><time>2026-04-10T13:40:56Z</time></trkpt><trkpt lat="45.81082909124929" lon="8.692971202988392"><ele>247.0</ele><time>2026-04-10T13:40:57Z</time></trkpt><trkpt lat="45.81078735794477" lon="8.693062380283946"><ele>246.66666666666666</ele><time>2026-04-10T13:40:58Z</time></trkpt><trkpt lat="45.810738256531586" lon="8.693127433489769"><ele>246.33333333333331</ele><time>2026-04-10T13:40:59Z</time></trkpt><trkpt lat="45.810665117040585" lon="8.693246888045776"><ele>246.0</ele><time>2026-04-10T13:41:01Z</time></trkpt><trkpt lat="45.81062448881376" lon="8.693323230315194"><ele>245.66666666666669</ele><time>2026-04-10T13:41:02Z</time></trkpt><trkpt lat="45.81058223737353" lon="8.693405239869964"><ele>245.33333333333334</ele><time>2026-04-10T13:41:03Z</time></trkpt><trkpt lat="45.810532628482754" lon="8.693467124114212"><ele>245.0</ele><time>2026-04-10T13:41:04Z</time></trkpt><trkpt lat="45.81047889625264" lon="8.69358400774242"><ele>245.0</ele><time>2026-04-10T13:41:05.999Z</time></trkpt><trkpt lat="45.810390061919264" lon="8.69367508079365"><ele>245.0</ele><time>2026-04-10T13:41:08Z</time></trkpt><trkpt lat="45.81032599750181" lon="8.693775281790463"><ele>245.0</ele><time>2026-04-10T13:41:10Z</time></trkpt><trkpt lat="45.810271044038046" lon="8.69383589357028"><ele>245.0</ele><time>2026-04-10T13:41:12Z</time></trkpt><trkpt lat="45.81019399099326" lon="8.693909368005992"><ele>245.0</ele><time>2026-04-10T13:41:14Z</time></trkpt><trkpt lat="45.810104494979846" lon="8.693984281484711"><ele>245.0</ele><time>2026-04-10T13:41:16Z</time></trkpt><trkpt lat="45.81000085930219" lon="8.694076474327003"><ele>245.0</ele><time>2026-04-10T13:41:18Z</time></trkpt><trkpt lat="45.80991880547181" lon="8.694113203572504"><ele>245.0</ele><time>2026-04-10T13:41:20Z</time></trkpt><trkpt lat="45.809829344090076" lon="8.694176428553456"><ele>245.0</ele><time>2026-04-10T13:41:24Z</time></trkpt><trkpt lat="45.8097920698311" lon="8.694307719298298"><ele>245.0</ele><time>2026-04-10T13:41:26Z</time></trkpt><trkpt lat="45.80980291821356" lon="8.69440263242327"><ele>245.66666666666669</ele><time>2026-04-10T13:41:27Z</time></trkpt><trkpt lat="45.80981471318469" lon="8.694586427542275"><ele>246.33333333333334</ele><time>2026-04-10T13:41:29Z</time></trkpt><trkpt lat="45.809830921454626" lon="8.694688485273593"><ele>247.0</ele><time>2026-04-10T13:41:30Z</time></trkpt><trkpt lat="45.809851811649914" lon="8.69478402262763"><ele>247.66666666666669</ele><time>2026-04-10T13:41:31Z</time></trkpt><trkpt lat="45.80988829534469" lon="8.694876726475027"><ele>248.33333333333334</ele><time>2026-04-10T13:41:32Z</time></trkpt><trkpt lat="45.8098988007906" lon="8.694989343179392"><ele>249.0</ele><time>2026-04-10T13:41:33Z</time></trkpt><trkpt lat="45.80993571278137" lon="8.695100919783773"><ele>249.0</ele><time>2026-04-10T13:41:34Z</time></trkpt><trkpt lat="45.80996578277445" lon="8.695217271206783"><ele>249.0</ele><time>2026-04-10T13:41:35Z</time></trkpt><trkpt lat="45.809990916116966" lon="8.695322028666956"><ele>249.0</ele><time>2026-04-10T13:41:36Z</time></trkpt><trkpt lat="45.80999836400346" lon="8.69542610508104"><ele>249.0</ele><time>2026-04-10T13:41:37Z</time></trkpt><trkpt lat="45.810031845915475" lon="8.695564578707211"><ele>249.0</ele><time>2026-04-10T13:41:39Z</time></trkpt><trkpt lat="45.81001881536542" lon="8.695680193251132"><ele>249.0</ele><time>2026-04-10T13:41:41Z</time></trkpt><trkpt lat="45.80995656300117" lon="8.695810112368019"><ele>249.16666666666666</ele><time>2026-04-10T13:41:44Z</time></trkpt><trkpt lat="45.80991198217672" lon="8.695898510448112"><ele>249.33333333333331</ele><time>2026-04-10T13:41:45Z</time></trkpt><trkpt lat="45.80987136690869" lon="8.695974767370075"><ele>249.5</ele><time>2026-04-10T13:41:46Z</time></trkpt><trkpt lat="45.80978615316529" lon="8.696035387552138"><ele>249.66666666666666</ele><time>2026-04-10T13:41:48Z</time></trkpt><trkpt lat="45.809717456883696" lon="8.696040014298998"><ele>249.83333333333331</ele><time>2026-04-10T13:41:49Z</time></trkpt><trkpt lat="45.80964797445117" lon="8.696046280055645"><ele>250.0</ele><time>2026-04-10T13:41:50Z</time></trkpt><trkpt lat="45.80953691211765" lon="8.696061974825552"><ele>250.0</ele><time>2026-04-10T13:41:52Z</time></trkpt><trkpt lat="45.80944140310415" lon="8.696040441128666"><ele>250.0</ele><time>2026-04-10T13:41:54Z</time></trkpt><trkpt lat="45.80936962932071" lon="8.695942757886888"><ele>250.0</ele><time>2026-04-10T13:41:56Z</time></trkpt><trkpt lat="45.8093185755687" lon="8.69586409546548"><ele>250.0</ele><time>2026-04-10T13:41:57Z</time></trkpt><trkpt lat="45.80926270807064" lon="8.695808494647707"><ele>250.0</ele><time>2026-04-10T13:41:58Z</time></trkpt><trkpt lat="45.809183300862415" lon="8.695648093172467"><ele>250.6</ele><time>2026-04-10T13:42:00Z</time></trkpt><trkpt lat="45.809124496267096" lon="8.695552443693062"><ele>251.2</ele><time>2026-04-10T13:42:01Z</time></trkpt><trkpt lat="45.809057318329685" lon="8.695461647216899"><ele>251.8</ele><time>2026-04-10T13:42:02Z</time></trkpt><trkpt lat="45.808989018108655" lon="8.695351518855702"><ele>252.4</ele><time>2026-04-10T13:42:03Z</time></trkpt><trkpt lat="45.808915705939185" lon="8.695226900054703"><ele>253.0</ele><time>2026-04-10T13:42:04Z</time></trkpt><trkpt lat="45.80883758861786" lon="8.695103415188072"><ele>253.25</ele><time>2026-04-10T13:42:05Z</time></trkpt><trkpt lat="45.80876096853941" lon="8.694992166316961"><ele>253.5</ele><time>2026-04-10T13:42:06Z</time></trkpt><trkpt lat="45.80868062668188" lon="8.694861509505605"><ele>253.75</ele><time>2026-04-10T13:42:07Z</time></trkpt><trkpt lat="45.8086047277991" lon="8.694722756590044"><ele>254.0</ele><time>2026-04-10T13:42:08Z</time></trkpt><trkpt lat="45.80852011136111" lon="8.694579700482327"><ele>253.25</ele><time>2026-04-10T13:42:09Z</time></trkpt><trkpt lat="45.80842345449983" lon="8.694439191111636"><ele>252.5</ele><time>2026-04-10T13:42:10Z</time></trkpt><trkpt lat="45.80834343556984" lon="8.694297383147264"><ele>251.75</ele><time>2026-04-10T13:42:11Z</time></trkpt><trkpt lat="45.8082609114051" lon="8.694140680897505"><ele>251.0</ele><time>2026-04-10T13:42:12Z</time></trkpt><trkpt lat="45.80816475906636" lon="8.694000512960093"><ele>251.0</ele><time>2026-04-10T13:42:13Z</time></trkpt><trkpt lat="45.8080708919192" lon="8.69386251560589"><ele>251.0</ele><time>2026-04-10T13:42:14Z</time></trkpt><trkpt lat="45.80799078355354" lon="8.693720201511685"><ele>251.0</ele><time>2026-04-10T13:42:15Z</time></trkpt><trkpt lat="45.80791127152867" lon="8.693581919908972"><ele>251.0</ele><time>2026-04-10T13:42:16Z</time></trkpt><trkpt lat="45.807824947008136" lon="8.693447971886332"><ele>250.75</ele><time>2026-04-10T13:42:17Z</time></trkpt><trkpt lat="45.80773713471661" lon="8.693309284915111"><ele>250.5</ele><time>2026-04-10T13:42:18Z</time></trkpt><trkpt lat="45.807661445287565" lon="8.693181279128126"><ele>250.25</ele><time>2026-04-10T13:42:19Z</time></trkpt><trkpt lat="45.807586008817886" lon="8.693067034032673"><ele>250.0</ele><time>2026-04-10T13:42:20Z</time></trkpt><trkpt lat="45.80752182488329" lon="8.692949783024659"><ele>249.99999999999997</ele><time>2026-04-10T13:42:21Z</time></trkpt><trkpt lat="45.80745392868753" lon="8.692828391851913"><ele>250.0</ele><time>2026-04-10T13:42:22Z</time></trkpt><trkpt lat="45.807412702019846" lon="8.69270289380933"><ele>250.0</ele><time>2026-04-10T13:42:23Z</time></trkpt><trkpt lat="45.807366764932766" lon="8.692612382325603"><ele>250.0</ele><time>2026-04-10T13:42:24Z</time></trkpt><trkpt lat="45.8073250739522" lon="8.692510022097744"><ele>249.99999999999997</ele><time>2026-04-10T13:42:26Z</time></trkpt><trkpt lat="45.80728802151968" lon="8.69242413028229"><ele>250.0</ele><time>2026-04-10T13:42:30Z</time></trkpt><trkpt lat="45.80725227022715" lon="8.692318946241357"><ele>250.0</ele><time>2026-04-10T13:42:50Z</time></trkpt><trkpt lat="45.80728692903359" lon="8.692462868559971"><ele>250.0</ele><time>2026-04-10T13:43:03Z</time></trkpt><trkpt lat="45.80734267277297" lon="8.69261380985677"><ele>250.0</ele><time>2026-04-10T13:43:04Z</time></trkpt><trkpt lat="45.807391426380164" lon="8.692763537550807"><ele>250.0</ele><time>2026-04-10T13:43:05Z</time></trkpt><trkpt lat="45.8074656338158" lon="8.69290947211105"><ele>250.0</ele><time>2026-04-10T13:43:06Z</time></trkpt><trkpt lat="45.8075508250567" lon="8.693027186007834"><ele>250.0</ele><time>2026-04-10T13:43:07Z</time></trkpt><trkpt lat="45.80761808817087" lon="8.693141598562878"><ele>250.0</ele><time>2026-04-10T13:43:07.999Z</time></trkpt><trkpt lat="45.807679251281584" lon="8.69324632923188"><ele>250.0</ele><time>2026-04-10T13:43:08.999Z</time></trkpt><trkpt lat="45.807746187470094" lon="8.693348570280628"><ele>250.0</ele><time>2026-04-10T13:43:09.999Z</time></trkpt><trkpt lat="45.80780735111154" lon="8.693443593955376"><ele>250.2</ele><time>2026-04-10T13:43:10.999Z</time></trkpt><trkpt lat="45.807848168465526" lon="8.693539089511619"><ele>250.4</ele><time>2026-04-10T13:43:11.999Z</time></trkpt><trkpt lat="45.80790053182959" lon="8.693596684186776"><ele>250.60000000000002</ele><time>2026-04-10T13:43:13Z</time></trkpt><trkpt lat="45.807975956434696" lon="8.693727759212642"><ele>250.8</ele><time>2026-04-10T13:43:15Z</time></trkpt><trkpt lat="45.80805545980086" lon="8.69384742584107"><ele>251.0</ele><time>2026-04-10T13:43:17Z</time></trkpt><trkpt lat="45.80810700807823" lon="8.693932267551938"><ele>251.00000000000003</ele><time>2026-04-10T13:43:18Z</time></trkpt><trkpt lat="45.80815490188317" lon="8.694015060695728"><ele>251.0</ele><time>2026-04-10T13:43:19Z</time></trkpt><trkpt lat="45.80820600145871" lon="8.694090987437223"><ele>251.0</ele><time>2026-04-10T13:43:20Z</time></trkpt><trkpt lat="45.80825187709996" lon="8.694167987429845"><ele>251.0</ele><time>2026-04-10T13:43:21Z</time></trkpt><trkpt lat="45.80830548968894" lon="8.694258684433537"><ele>251.00000000000003</ele><time>2026-04-10T13:43:22Z</time></trkpt><trkpt lat="45.80834965402697" lon="8.694359894189471"><ele>251.0</ele><time>2026-04-10T13:43:23Z</time></trkpt><trkpt lat="45.80840988815762" lon="8.694428051141207"><ele>251.60000000000002</ele><time>2026-04-10T13:43:24Z</time></trkpt><trkpt lat="45.808465332178635" lon="8.69452355124854"><ele>252.20000000000002</ele><time>2026-04-10T13:43:25Z</time></trkpt><trkpt lat="45.80852420216819" lon="8.694633144736427"><ele>252.79999999999998</ele><time>2026-04-10T13:43:26Z</time></trkpt><trkpt lat="45.8085921545782" lon="8.694743559131275"><ele>253.39999999999998</ele><time>2026-04-10T13:43:27Z</time></trkpt><trkpt lat="45.80866071645612" lon="8.694853339369207"><ele>254.0</ele><time>2026-04-10T13:43:28Z</time></trkpt><trkpt lat="45.808720739997" lon="8.694945775118368"><ele>254.0</ele><time>2026-04-10T13:43:29Z</time></trkpt><trkpt lat="45.808774275833514" lon="8.695038097412365"><ele>254.0</ele><time>2026-04-10T13:43:30Z</time></trkpt><trkpt lat="45.80881933498501" lon="8.695124714532726"><ele>254.0</ele><time>2026-04-10T13:43:31Z</time></trkpt><trkpt lat="45.80886689613049" lon="8.695201786945603"><ele>254.0</ele><time>2026-04-10T13:43:32Z</time></trkpt><trkpt lat="45.80891445538692" lon="8.695273122812102"><ele>254.0</ele><time>2026-04-10T13:43:33Z</time></trkpt><trkpt lat="45.80896224795543" lon="8.695338697896675"><ele>254.0</ele><time>2026-04-10T13:43:34Z</time></trkpt><trkpt lat="45.809007127263335" lon="8.69541548843206"><ele>254.0</ele><time>2026-04-10T13:43:35Z</time></trkpt><trkpt lat="45.8090578701168" lon="8.69555440187892"><ele>253.79999999999998</ele><time>2026-04-10T13:43:37Z</time></trkpt><trkpt lat="45.80895558406906" lon="8.695695673252052"><ele>253.59999999999997</ele><time>2026-04-10T13:43:39Z</time></trkpt><trkpt lat="45.808883712510614" lon="8.695669323815686"><ele>253.4</ele><time>2026-04-10T13:43:40Z</time></trkpt><trkpt lat="45.80878807491679" lon="8.69567279742323"><ele>253.2</ele><time>2026-04-10T13:43:41Z</time></trkpt><trkpt lat="45.80870847822431" lon="8.695658265306367"><ele>253.0</ele><time>2026-04-10T13:43:42Z</time></trkpt><trkpt lat="45.80863670589419" lon="8.695650111499935"><ele>252.99999999999997</ele><time>2026-04-10T13:43:43Z</time></trkpt><trkpt lat="45.808566928254365" lon="8.69564620708775"><ele>253.0</ele><time>2026-04-10T13:43:44Z</time></trkpt><trkpt lat="45.80848030608313" lon="8.695639669438625"><ele>253.0</ele><time>2026-04-10T13:43:45Z</time></trkpt><trkpt lat="45.808397329885786" lon="8.69564142377862"><ele>253.0</ele><time>2026-04-10T13:43:46Z</time></trkpt><trkpt lat="45.808299809267915" lon="8.695634238615295"><ele>252.99999999999997</ele><time>2026-04-10T13:43:47Z</time></trkpt><trkpt lat="45.80820140201761" lon="8.695626169284498"><ele>253.0</ele><time>2026-04-10T13:43:48Z</time></trkpt><trkpt lat="45.80809704997058" lon="8.695625774550816"><ele>254.60000000000002</ele><time>2026-04-10T13:43:49Z</time></trkpt><trkpt lat="45.80799173806637" lon="8.695617273230734"><ele>256.20000000000005</ele><time>2026-04-10T13:43:50Z</time></trkpt><trkpt lat="45.80788261986955" lon="8.695611949086583"><ele>257.8</ele><time>2026-04-10T13:43:51Z</time></trkpt><trkpt lat="45.807786063710424" lon="8.695593961260327"><ele>259.40000000000003</ele><time>2026-04-10T13:43:52Z</time></trkpt><trkpt lat="45.80768806838305" lon="8.695605019424821"><ele>261.0</ele><time>2026-04-10T13:43:53Z</time></trkpt><trkpt lat="45.807572661529356" lon="8.695584728450253"><ele>262.75</ele><time>2026-04-10T13:43:54Z</time></trkpt><trkpt lat="45.80745684853668" lon="8.695597704237208"><ele>264.5</ele><time>2026-04-10T13:43:55Z</time></trkpt><trkpt lat="45.80733603420653" lon="8.695596224424225"><ele>266.25</ele><time>2026-04-10T13:43:56Z</time></trkpt><trkpt lat="45.80721132970618" lon="8.695586243024204"><ele>268.0</ele><time>2026-04-10T13:43:57Z</time></trkpt><trkpt lat="45.80708398812889" lon="8.695590115991791"><ele>268.0</ele><time>2026-04-10T13:43:58Z</time></trkpt><trkpt lat="45.806952629954836" lon="8.695570649485838"><ele>268.0</ele><time>2026-04-10T13:43:59Z</time></trkpt><trkpt lat="45.80682525223092" lon="8.695573203894863"><ele>268.0</ele><time>2026-04-10T13:44:00Z</time></trkpt><trkpt lat="45.80670827913977" lon="8.69557635427017"><ele>268.0</ele><time>2026-04-10T13:44:01Z</time></trkpt><trkpt lat="45.806600310619466" lon="8.695576826980465"><ele>268.5</ele><time>2026-04-10T13:44:02Z</time></trkpt><trkpt lat="45.80651371979457" lon="8.695573407325258"><ele>269.0</ele><time>2026-04-10T13:44:03Z</time></trkpt><trkpt lat="45.806436780555515" lon="8.695572515937052"><ele>269.5</ele><time>2026-04-10T13:44:04Z</time></trkpt><trkpt lat="45.80633730544462" lon="8.69556690949699"><ele>270.0</ele><time>2026-04-10T13:44:06Z</time></trkpt><trkpt lat="45.80626901464789" lon="8.6955790276038"><ele>270.5</ele><time>2026-04-10T13:44:17Z</time></trkpt><trkpt lat="45.80619736342866" lon="8.695564407194407"><ele>271.0</ele><time>2026-04-10T13:44:20Z</time></trkpt><trkpt lat="45.80609818716769" lon="8.695556749795546"><ele>271.0</ele><time>2026-04-10T13:44:25Z</time></trkpt><trkpt lat="45.80602552433835" lon="8.695577743971487"><ele>271.0</ele><time>2026-04-10T13:44:27Z</time></trkpt><trkpt lat="45.80592680293989" lon="8.695562211876533"><ele>271.0</ele><time>2026-04-10T13:44:29Z</time></trkpt><trkpt lat="45.80585492781443" lon="8.695986873644806"><ele>270.8</ele><time>2026-04-10T13:44:30Z</time></trkpt><trkpt lat="45.8058092000722" lon="8.696068928346154"><ele>270.6</ele><time>2026-04-10T13:44:31Z</time></trkpt><trkpt lat="45.805748375359585" lon="8.696177447971772"><ele>270.4</ele><time>2026-04-10T13:44:33Z</time></trkpt><trkpt lat="45.8056719707692" lon="8.696284818286088"><ele>270.2</ele><time>2026-04-10T13:44:35Z</time></trkpt><trkpt lat="45.805615172960174" lon="8.696399543898417"><ele>270.0</ele><time>2026-04-10T13:44:36Z</time></trkpt><trkpt lat="45.80551908190262" lon="8.696483481838825"><ele>270.0</ele><time>2026-04-10T13:44:38Z</time></trkpt><trkpt lat="45.805433310681494" lon="8.696628123608571"><ele>270.0</ele><time>2026-04-10T13:44:40Z</time></trkpt><trkpt lat="45.80537354666301" lon="8.696732102852383"><ele>270.0</ele><time>2026-04-10T13:44:41Z</time></trkpt><trkpt lat="45.805319856737796" lon="8.696839740264911"><ele>270.0</ele><time>2026-04-10T13:44:42Z</time></trkpt><trkpt lat="45.805251317428066" lon="8.696926266730129"><ele>270.0</ele><time>2026-04-10T13:44:43Z</time></trkpt><trkpt lat="45.80519427348529" lon="8.697015368960864"><ele>271.2</ele><time>2026-04-10T13:44:44Z</time></trkpt><trkpt lat="45.80511213732149" lon="8.697096059988748"><ele>272.4</ele><time>2026-04-10T13:44:46Z</time></trkpt><trkpt lat="45.805043032037936" lon="8.697142365386364"><ele>273.6</ele><time>2026-04-10T13:44:47Z</time></trkpt><trkpt lat="45.80493826514512" lon="8.697204245166624"><ele>274.8</ele><time>2026-04-10T13:44:49Z</time></trkpt><trkpt lat="45.80485056412696" lon="8.697222515858737"><ele>276.0</ele><time>2026-04-10T13:44:51Z</time></trkpt><trkpt lat="45.8047693902846" lon="8.697242953104237"><ele>276.0</ele><time>2026-04-10T13:44:53Z</time></trkpt><trkpt lat="45.80465579436008" lon="8.697247651961884"><ele>276.0</ele><time>2026-04-10T13:44:55Z</time></trkpt><trkpt lat="45.804552344817395" lon="8.697235167937224"><ele>276.0</ele><time>2026-04-10T13:44:57Z</time></trkpt><trkpt lat="45.804468365147166" lon="8.697214764978797"><ele>276.0</ele><time>2026-04-10T13:44:59Z</time></trkpt><trkpt lat="45.80438791130822" lon="8.697228973502963"><ele>276.0</ele><time>2026-04-10T13:45:01Z</time></trkpt><trkpt lat="45.80431005105294" lon="8.697226974280033"><ele>274.6666666666667</ele><time>2026-04-10T13:45:03Z</time></trkpt><trkpt lat="45.80420092490206" lon="8.697228579994109"><ele>273.3333333333333</ele><time>2026-04-10T13:45:05Z</time></trkpt><trkpt lat="45.80413198691051" lon="8.6972384778066"><ele>272.0</ele><time>2026-04-10T13:45:06Z</time></trkpt><trkpt lat="45.80403858793616" lon="8.697245771728694"><ele>270.66666666666663</ele><time>2026-04-10T13:45:08Z</time></trkpt><trkpt lat="45.803961400727495" lon="8.697258013834377"><ele>269.3333333333333</ele><time>2026-04-10T13:45:10Z</time></trkpt><trkpt lat="45.80389729340832" lon="8.697295111038922"><ele>268.0</ele><time>2026-04-10T13:45:14Z</time></trkpt><trkpt lat="45.803970464076386" lon="8.697255472851314"><ele>268.0</ele><time>2026-04-10T13:46:25Z</time></trkpt><trkpt lat="45.804038045202276" lon="8.697235305350663"><ele>268.0</ele><time>2026-04-10T13:46:27Z</time></trkpt><trkpt lat="45.80406676549423" lon="8.697089492596707"><ele>268.0</ele><time>2026-04-10T13:47:18Z</time></trkpt><trkpt lat="45.80404679597088" lon="8.696962079955238"><ele>268.0</ele><time>2026-04-10T13:47:19Z</time></trkpt><trkpt lat="45.80401818359978" lon="8.696812836698646"><ele>268.0</ele><time>2026-04-10T13:47:20Z</time></trkpt><trkpt lat="45.803995251309786" lon="8.696689538119625"><ele>268.16666666666663</ele><time>2026-04-10T13:47:21Z</time></trkpt><trkpt lat="45.803983006947014" lon="8.696597377844531"><ele>268.3333333333333</ele><time>2026-04-10T13:47:22Z</time></trkpt><trkpt lat="45.80396227149387" lon="8.696428191479841"><ele>268.5</ele><time>2026-04-10T13:47:24Z</time></trkpt><trkpt lat="45.80394819256129" lon="8.69628350678276"><ele>268.6666666666667</ele><time>2026-04-10T13:47:26Z</time></trkpt><trkpt lat="45.80392566182883" lon="8.696170259127687"><ele>268.83333333333337</ele><time>2026-04-10T13:47:28Z</time></trkpt><trkpt lat="45.80390848044319" lon="8.696061553630845"><ele>269.0</ele><time>2026-04-10T13:47:30Z</time></trkpt><trkpt lat="45.803857567946515" lon="8.695969326079403"><ele>269.4</ele><time>2026-04-10T13:47:32Z</time></trkpt><trkpt lat="45.80382549243601" lon="8.69582801979921"><ele>269.79999999999995</ele><time>2026-04-10T13:47:34Z</time></trkpt><trkpt lat="45.8038057550899" lon="8.695704452106646"><ele>270.20000000000005</ele><time>2026-04-10T13:47:36Z</time></trkpt><trkpt lat="45.80379288853479" lon="8.69558676298572"><ele>270.6</ele><time>2026-04-10T13:47:38Z</time></trkpt><trkpt lat="45.80379013717126" lon="8.695425041356662"><ele>271.0</ele><time>2026-04-10T13:47:40Z</time></trkpt><trkpt lat="45.803778433510075" lon="8.695312207012838"><ele>271.8333333333333</ele><time>2026-04-10T13:47:42Z</time></trkpt><trkpt lat="45.80376087459969" lon="8.695192450627593"><ele>272.66666666666663</ele><time>2026-04-10T13:47:44Z</time></trkpt><trkpt lat="45.80373079117697" lon="8.69505148211152"><ele>273.5</ele><time>2026-04-10T13:47:46Z</time></trkpt><trkpt lat="45.80375277434067" lon="8.69494416310634"><ele>274.3333333333333</ele><time>2026-04-10T13:47:48Z</time></trkpt><trkpt lat="45.8037303043754" lon="8.694792136586397"><ele>275.1666666666667</ele><time>2026-04-10T13:47:50Z</time></trkpt><trkpt lat="45.80373337860084" lon="8.694698662718084"><ele>276.0</ele><time>2026-04-10T13:47:51Z</time></trkpt><trkpt lat="45.80372993149285" lon="8.69451685544761"><ele>276.5</ele><time>2026-04-10T13:47:53Z</time></trkpt><trkpt lat="45.80372812876899" lon="8.694421363339963"><ele>277.0</ele><time>2026-04-10T13:47:54Z</time></trkpt><trkpt lat="45.80372977925079" lon="8.694255957753006"><ele>277.5</ele><time>2026-04-10T13:47:56Z</time></trkpt><trkpt lat="45.80373291805204" lon="8.694165417595384"><ele>278.0</ele><time>2026-04-10T13:47:57Z</time></trkpt><trkpt lat="45.803741011652434" lon="8.69403577827767"><ele>278.5</ele><time>2026-04-10T13:47:59Z</time></trkpt><trkpt lat="45.803755246425645" lon="8.693887146965064"><ele>279.0</ele><time>2026-04-10T13:48:01Z</time></trkpt><trkpt lat="45.80377112832501" lon="8.693776886375993"><ele>279.0</ele><time>2026-04-10T13:48:02Z</time></trkpt><trkpt lat="45.803794536905365" lon="8.693651622436743"><ele>279.0</ele><time>2026-04-10T13:48:03Z</time></trkpt><trkpt lat="45.803817324810815" lon="8.693567114229095"><ele>279.0</ele><time>2026-04-10T13:48:04Z</time></trkpt><trkpt lat="45.80385726987134" lon="8.693463880153443"><ele>279.0</ele><time>2026-04-10T13:48:06Z</time></trkpt><trkpt lat="45.80389995855084" lon="8.69332205858912"><ele>279.0</ele><time>2026-04-10T13:48:08Z</time></trkpt><trkpt lat="45.80392477137756" lon="8.693231163748068"><ele>279.0</ele><time>2026-04-10T13:48:09Z</time></trkpt><trkpt lat="45.80395542218638" lon="8.693099807601486"><ele>279.2</ele><time>2026-04-10T13:48:11Z</time></trkpt><trkpt lat="45.80396583889106" lon="8.69296871507096"><ele>279.4</ele><time>2026-04-10T13:48:13Z</time></trkpt><trkpt lat="45.803988414545245" lon="8.692809662551008"><ele>279.6</ele><time>2026-04-10T13:48:15Z</time></trkpt><trkpt lat="45.80399780237285" lon="8.692696317601104"><ele>279.8</ele><time>2026-04-10T13:48:17Z</time></trkpt><trkpt lat="45.803961037328165" lon="8.69254593175104"><ele>280.0</ele><time>2026-04-10T13:48:20Z</time></trkpt><trkpt lat="45.803927162914015" lon="8.692464651680439"><ele>280.0</ele><time>2026-04-10T13:48:21Z</time></trkpt><trkpt lat="45.803889126810525" lon="8.692387792123661"><ele>280.0</ele><time>2026-04-10T13:48:22Z</time></trkpt><trkpt lat="45.80383016229969" lon="8.692309120630888"><ele>280.0</ele><time>2026-04-10T13:48:24Z</time></trkpt><trkpt lat="45.80375749986166" lon="8.692204808918943"><ele>280.0</ele><time>2026-04-10T13:48:26Z</time></trkpt><trkpt lat="45.803714590907106" lon="8.692116418341147"><ele>280.0</ele><time>2026-04-10T13:48:27Z</time></trkpt><trkpt lat="45.80366159270341" lon="8.692024446274294"><ele>280.0</ele><time>2026-04-10T13:48:28Z</time></trkpt><trkpt lat="45.80359297395833" lon="8.691903057623689"><ele>280.5</ele><time>2026-04-10T13:48:30Z</time></trkpt><trkpt lat="45.803549723907366" lon="8.69177207367702"><ele>281.0</ele><time>2026-04-10T13:48:32Z</time></trkpt><trkpt lat="45.8035253157283" lon="8.691648077068265"><ele>281.5</ele><time>2026-04-10T13:48:34Z</time></trkpt><trkpt lat="45.80351447133091" lon="8.691557179398645"><ele>282.0</ele><time>2026-04-10T13:48:36Z</time></trkpt><trkpt lat="45.80349974144688" lon="8.691464358484586"><ele>282.5</ele><time>2026-04-10T13:48:38Z</time></trkpt><trkpt lat="45.80348906614779" lon="8.691302593283435"><ele>283.0</ele><time>2026-04-10T13:48:40Z</time></trkpt><trkpt lat="45.80348010940916" lon="8.691211108570284"><ele>282.5</ele><time>2026-04-10T13:48:41Z</time></trkpt><trkpt lat="45.80345750038866" lon="8.691077557691862"><ele>282.0</ele><time>2026-04-10T13:48:43Z</time></trkpt><trkpt lat="45.803453551125514" lon="8.690980887101576"><ele>281.5</ele><time>2026-04-10T13:48:44Z</time></trkpt><trkpt lat="45.803438672117124" lon="8.690843205128216"><ele>281.0</ele><time>2026-04-10T13:48:46Z</time></trkpt><trkpt lat="45.803464148800025" lon="8.690745967005205"><ele>280.5</ele><time>2026-04-10T13:48:48Z</time></trkpt><trkpt lat="45.80348753648374" lon="8.690640037825057"><ele>280.0</ele><time>2026-04-10T13:48:50Z</time></trkpt><trkpt lat="45.80356265804716" lon="8.690523302591961"><ele>280.0</ele><time>2026-04-10T13:48:52Z</time></trkpt><trkpt lat="45.80365159099284" lon="8.690454845318072"><ele>280.0</ele><time>2026-04-10T13:48:54Z</time></trkpt><trkpt lat="45.80375228070852" lon="8.690377348085823"><ele>280.0</ele><time>2026-04-10T13:48:57Z</time></trkpt><trkpt lat="45.80382542359091" lon="8.690293719012445"><ele>280.0</ele><time>2026-04-10T13:48:59Z</time></trkpt><trkpt lat="45.803847898766826" lon="8.690184752759452"><ele>280.0</ele><time>2026-04-10T13:49:01Z</time></trkpt><trkpt lat="45.80394374401842" lon="8.690059139398041"><ele>280.0</ele><time>2026-04-10T13:49:03Z</time></trkpt><trkpt lat="45.80398210507299" lon="8.68994839256287"><ele>280.0</ele><time>2026-04-10T13:49:04Z</time></trkpt><trkpt lat="45.80400355542003" lon="8.689838094304642"><ele>280.0</ele><time>2026-04-10T13:49:05Z</time></trkpt><trkpt lat="45.80405049503006" lon="8.689701666527053"><ele>280.0</ele><time>2026-04-10T13:49:07Z</time></trkpt><trkpt lat="45.804097682178195" lon="8.68956274753608"><ele>280.0</ele><time>2026-04-10T13:49:09Z</time></trkpt><trkpt lat="45.80414308856045" lon="8.689484818631026"><ele>279.8333333333333</ele><time>2026-04-10T13:49:10Z</time></trkpt><trkpt lat="45.80417724498749" lon="8.689392857510345"><ele>279.66666666666663</ele><time>2026-04-10T13:49:11Z</time></trkpt><trkpt lat="45.8042263532256" lon="8.689280806409236"><ele>279.5</ele><time>2026-04-10T13:49:13Z</time></trkpt><trkpt lat="45.80428977806807" lon="8.689145889952393"><ele>279.3333333333333</ele><time>2026-04-10T13:49:15Z</time></trkpt><trkpt lat="45.80433442939464" lon="8.689060133460252"><ele>279.1666666666667</ele><time>2026-04-10T13:49:16Z</time></trkpt><trkpt lat="45.80438187968699" lon="8.688988639826752"><ele>279.0</ele><time>2026-04-10T13:49:17Z</time></trkpt><trkpt lat="45.80442483570486" lon="8.688901786293476"><ele>279.0</ele><time>2026-04-10T13:49:20Z</time></trkpt><trkpt lat="45.80447043395048" lon="8.688826870518538"><ele>279.0</ele><time>2026-04-10T13:49:26Z</time></trkpt><trkpt lat="45.804549910894615" lon="8.688756762282752"><ele>279.0</ele><time>2026-04-10T13:49:29Z</time></trkpt><trkpt lat="45.80462293051439" lon="8.688684783105868"><ele>279.0</ele><time>2026-04-10T13:49:52Z</time></trkpt><trkpt lat="45.80462864646709" lon="8.688543663080509"><ele>279.0</ele><time>2026-04-10T13:49:56Z</time></trkpt><trkpt lat="45.80461117311797" lon="8.688441387705282"><ele>279.0</ele><time>2026-04-10T13:49:57Z</time></trkpt><trkpt lat="45.80458150034842" lon="8.688342316183393"><ele>278.99999999999994</ele><time>2026-04-10T13:49:58Z</time></trkpt><trkpt lat="45.80455544949239" lon="8.688255337562556"><ele>279.0</ele><time>2026-04-10T13:49:59Z</time></trkpt><trkpt lat="45.804528573145" lon="8.688165602405688"><ele>279.0</ele><time>2026-04-10T13:50:00Z</time></trkpt><trkpt lat="45.804498167105265" lon="8.6880628075015"><ele>279.0</ele><time>2026-04-10T13:50:01Z</time></trkpt><trkpt lat="45.804467700669285" lon="8.68796005387424"><ele>279.0</ele><time>2026-04-10T13:50:02Z</time></trkpt><trkpt lat="45.804427467757186" lon="8.687872890741843"><ele>278.99999999999994</ele><time>2026-04-10T13:50:03Z</time></trkpt><trkpt lat="45.80439710868283" lon="8.687774650307292"><ele>279.0</ele><time>2026-04-10T13:50:04Z</time></trkpt><trkpt lat="45.80436739962959" lon="8.687675874723137"><ele>279.6666666666667</ele><time>2026-04-10T13:50:05Z</time></trkpt><trkpt lat="45.80435338901851" lon="8.687574516841632"><ele>280.3333333333333</ele><time>2026-04-10T13:50:06Z</time></trkpt><trkpt lat="45.804313012677426" lon="8.687492969563888"><ele>281.0</ele><time>2026-04-10T13:50:07Z</time></trkpt><trkpt lat="45.804279381834306" lon="8.687325292597556"><ele>281.66666666666663</ele><time>2026-04-10T13:50:09Z</time></trkpt><trkpt lat="45.80424858720971" lon="8.687221604679838"><ele>282.3333333333333</ele><time>2026-04-10T13:50:10Z</time></trkpt><trkpt lat="45.80420527490023" lon="8.687129540071405"><ele>283.0</ele><time>2026-04-10T13:50:11Z</time></trkpt><trkpt lat="45.804172111652846" lon="8.687014506304324"><ele>283.5</ele><time>2026-04-10T13:50:12Z</time></trkpt><trkpt lat="45.80413923210075" lon="8.686909722777298"><ele>284.0</ele><time>2026-04-10T13:50:13Z</time></trkpt><trkpt lat="45.80412802148433" lon="8.686792459283927"><ele>284.5</ele><time>2026-04-10T13:50:14Z</time></trkpt><trkpt lat="45.804121726585116" lon="8.686686241829259"><ele>285.0</ele><time>2026-04-10T13:50:15Z</time></trkpt><trkpt lat="45.804109913861716" lon="8.686596174605967"><ele>285.5</ele><time>2026-04-10T13:50:16Z</time></trkpt><trkpt lat="45.8041291354609" lon="8.686442024735962"><ele>286.0</ele><time>2026-04-10T13:50:18Z</time></trkpt><trkpt lat="45.80409643311681" lon="8.6863326929956"><ele>286.0</ele><time>2026-04-10T13:50:20Z</time></trkpt><trkpt lat="45.804049793914665" lon="8.686271152049471"><ele>286.0</ele><time>2026-04-10T13:50:25Z</time></trkpt><trkpt lat="45.804128604629376" lon="8.686143175876374"><ele>286.0</ele><time>2026-04-10T13:50:26Z</time></trkpt><trkpt lat="45.80418348019282" lon="8.686089925647758"><ele>286.0</ele><time>2026-04-10T13:50:27Z</time></trkpt><trkpt lat="45.80424703285852" lon="8.686013713744892"><ele>286.0</ele><time>2026-04-10T13:50:28Z</time></trkpt><trkpt lat="45.80430936160796" lon="8.685922473630693"><ele>286.0</ele><time>2026-04-10T13:50:29Z</time></trkpt><trkpt lat="45.804366961552056" lon="8.68583915848182"><ele>285.8</ele><time>2026-04-10T13:50:30Z</time></trkpt><trkpt lat="45.804436022599994" lon="8.68574721731065"><ele>285.6</ele><time>2026-04-10T13:50:31Z</time></trkpt><trkpt lat="45.80449702389865" lon="8.68563588273413"><ele>285.4</ele><time>2026-04-10T13:50:32Z</time></trkpt><trkpt lat="45.80454984089687" lon="8.685512110259877"><ele>285.2</ele><time>2026-04-10T13:50:33Z</time></trkpt><trkpt lat="45.80459899863247" lon="8.685377518391496"><ele>285.0</ele><time>2026-04-10T13:50:34Z</time></trkpt><trkpt lat="45.80466141090031" lon="8.68524177175158"><ele>283.25</ele><time>2026-04-10T13:50:35Z</time></trkpt><trkpt lat="45.80470767107587" lon="8.685078455246053"><ele>281.5</ele><time>2026-04-10T13:50:36Z</time></trkpt><trkpt lat="45.80473908630976" lon="8.684896033076447"><ele>279.75</ele><time>2026-04-10T13:50:37Z</time></trkpt><trkpt lat="45.80478544857946" lon="8.684712984594267"><ele>278.0</ele><time>2026-04-10T13:50:38Z</time></trkpt><trkpt lat="45.80481994698748" lon="8.684534321691553"><ele>277.5</ele><time>2026-04-10T13:50:39Z</time></trkpt><trkpt lat="45.80484090975327" lon="8.684362951507286"><ele>277.0</ele><time>2026-04-10T13:50:40Z</time></trkpt><trkpt lat="45.804864207857925" lon="8.684199876273198"><ele>276.5</ele><time>2026-04-10T13:50:41Z</time></trkpt><trkpt lat="45.804893359799195" lon="8.684043973373173"><ele>276.0</ele><time>2026-04-10T13:50:42Z</time></trkpt><trkpt lat="45.80492772418223" lon="8.683896026130798"><ele>276.0</ele><time>2026-04-10T13:50:43Z</time></trkpt><trkpt lat="45.80496322969206" lon="8.683736388254296"><ele>276.0</ele><time>2026-04-10T13:50:44Z</time></trkpt><trkpt lat="45.804987798622264" lon="8.683571442725482"><ele>276.0</ele><time>2026-04-10T13:50:45Z</time></trkpt><trkpt lat="45.80500421704449" lon="8.68340500866141"><ele>276.0</ele><time>2026-04-10T13:50:46Z</time></trkpt><trkpt lat="45.80501597016723" lon="8.683234192306944"><ele>277.0</ele><time>2026-04-10T13:50:47Z</time></trkpt><trkpt lat="45.80502142082008" lon="8.683062130664613"><ele>278.0</ele><time>2026-04-10T13:50:48Z</time></trkpt><trkpt lat="45.805023259228044" lon="8.682884655117407"><ele>279.0</ele><time>2026-04-10T13:50:49Z</time></trkpt><trkpt lat="45.8050139047393" lon="8.682704440047397"><ele>280.0</ele><time>2026-04-10T13:50:50Z</time></trkpt><trkpt lat="45.80500369121088" lon="8.68252200697651"><ele>280.25</ele><time>2026-04-10T13:50:51Z</time></trkpt><trkpt lat="45.80499752565069" lon="8.682336863295975"><ele>280.5</ele><time>2026-04-10T13:50:52Z</time></trkpt><trkpt lat="45.80498620358783" lon="8.682143292299793"><ele>280.75</ele><time>2026-04-10T13:50:53Z</time></trkpt><trkpt lat="45.804971256758115" lon="8.681942255030172"><ele>281.0</ele><time>2026-04-10T13:50:54Z</time></trkpt><trkpt lat="45.80493971215482" lon="8.681735920275539"><ele>278.75</ele><time>2026-04-10T13:50:55Z</time></trkpt><trkpt lat="45.804903892218" lon="8.681550443734448"><ele>276.5</ele><time>2026-04-10T13:50:56Z</time></trkpt><trkpt lat="45.804876924330664" lon="8.681373614172674"><ele>274.25</ele><time>2026-04-10T13:50:57Z</time></trkpt><trkpt lat="45.80485415464034" lon="8.681199033414574"><ele>272.0</ele><time>2026-04-10T13:50:58Z</time></trkpt><trkpt lat="45.804822256276005" lon="8.681012940585898"><ele>271.25</ele><time>2026-04-10T13:50:59Z</time></trkpt><trkpt lat="45.80479297302731" lon="8.680820591706924"><ele>270.5</ele><time>2026-04-10T13:51:00Z</time></trkpt><trkpt lat="45.804767894009714" lon="8.680628334002721"><ele>269.75</ele><time>2026-04-10T13:51:01Z</time></trkpt><trkpt lat="45.804742704772444" lon="8.680429162083119"><ele>269.0</ele><time>2026-04-10T13:51:02Z</time></trkpt><trkpt lat="45.80471691387478" lon="8.680239153191593"><ele>269.0</ele><time>2026-04-10T13:51:03Z</time></trkpt><trkpt lat="45.80466825030885" lon="8.680079982609797"><ele>269.0</ele><time>2026-04-10T13:51:04Z</time></trkpt><trkpt lat="45.80462251384331" lon="8.67993806035395"><ele>269.0</ele><time>2026-04-10T13:51:05Z</time></trkpt><trkpt lat="45.804588847415914" lon="8.6798011946523"><ele>269.0</ele><time>2026-04-10T13:51:06Z</time></trkpt><trkpt lat="45.8045509235819" lon="8.67968113870192"><ele>269.0</ele><time>2026-04-10T13:51:07Z</time></trkpt><trkpt lat="45.80450381331703" lon="8.679586954816008"><ele>269.0</ele><time>2026-04-10T13:51:08Z</time></trkpt><trkpt lat="45.80447470834973" lon="8.679503205575866"><ele>269.0</ele><time>2026-04-10T13:51:09Z</time></trkpt><trkpt lat="45.80443698129193" lon="8.679369107413196"><ele>269.0</ele><time>2026-04-10T13:51:11Z</time></trkpt><trkpt lat="45.80440371377338" lon="8.679289228984912"><ele>269.0</ele><time>2026-04-10T13:51:15Z</time></trkpt><trkpt lat="45.80434891205716" lon="8.679183477451762"><ele>269.0</ele><time>2026-04-10T13:51:21Z</time></trkpt><trkpt lat="45.80427398906006" lon="8.679224924123554"><ele>269.0</ele><time>2026-04-10T13:51:23Z</time></trkpt><trkpt lat="45.80417218964541" lon="8.679306907888177"><ele>271.0</ele><time>2026-04-10T13:51:25Z</time></trkpt><trkpt lat="45.80405775856034" lon="8.67933758829111"><ele>273.0</ele><time>2026-04-10T13:51:27Z</time></trkpt><trkpt lat="45.80395367398108" lon="8.67936166351001"><ele>275.0</ele><time>2026-04-10T13:51:29Z</time></trkpt><trkpt lat="45.803860837434826" lon="8.679393452347712"><ele>277.0</ele><time>2026-04-10T13:51:32Z</time></trkpt><trkpt lat="45.803773405197646" lon="8.679390270798647"><ele>279.0</ele><time>2026-04-10T13:51:34Z</time></trkpt><trkpt lat="45.80368687281149" lon="8.67932104708476"><ele>279.0</ele><time>2026-04-10T13:51:36Z</time></trkpt><trkpt lat="45.80361237391587" lon="8.679249438984545"><ele>279.0</ele><time>2026-04-10T13:51:38Z</time></trkpt><trkpt lat="45.803556165151114" lon="8.679155650192339"><ele>279.0</ele><time>2026-04-10T13:51:40Z</time></trkpt><trkpt lat="45.80346545518034" lon="8.679143266243475"><ele>279.0</ele><time>2026-04-10T13:51:42Z</time></trkpt><trkpt lat="45.80336925947945" lon="8.679129093535394"><ele>279.0</ele><time>2026-04-10T13:51:44Z</time></trkpt><trkpt lat="45.803305744510894" lon="8.679115202164299"><ele>279.0</ele><time>2026-04-10T13:51:46Z</time></trkpt><trkpt lat="45.80321520898612" lon="8.67914601123768"><ele>280.8</ele><time>2026-04-10T13:51:49Z</time></trkpt><trkpt lat="45.80310980259415" lon="8.679085831264338"><ele>282.59999999999997</ele><time>2026-04-10T13:51:51Z</time></trkpt><trkpt lat="45.80297623502111" lon="8.679035475797667"><ele>284.4</ele><time>2026-04-10T13:51:53Z</time></trkpt><trkpt lat="45.80288662826956" lon="8.678998572951848"><ele>286.2</ele><time>2026-04-10T13:51:54Z</time></trkpt><trkpt lat="45.80280855288043" lon="8.678972547755421"><ele>288.0</ele><time>2026-04-10T13:51:55Z</time></trkpt><trkpt lat="45.802729250780466" lon="8.678960113870438"><ele>288.8333333333333</ele><time>2026-04-10T13:51:56Z</time></trkpt><trkpt lat="45.80264334891743" lon="8.678967890076157"><ele>289.6666666666667</ele><time>2026-04-10T13:51:57Z</time></trkpt><trkpt lat="45.80257821379983" lon="8.678970533204602"><ele>290.5</ele><time>2026-04-10T13:51:58Z</time></trkpt><trkpt lat="45.80246744319112" lon="8.678943381504872"><ele>291.33333333333337</ele><time>2026-04-10T13:52:00Z</time></trkpt><trkpt lat="45.802385621632446" lon="8.678940925770718"><ele>292.1666666666667</ele><time>2026-04-10T13:52:01Z</time></trkpt><trkpt lat="45.80230433555226" lon="8.678938486103968"><ele>293.0</ele><time>2026-04-10T13:52:02Z</time></trkpt><trkpt lat="45.802232396852645" lon="8.678959806074687"><ele>293.0</ele><time>2026-04-10T13:52:03Z</time></trkpt><trkpt lat="45.80216872814164" lon="8.678957190652945"><ele>293.0</ele><time>2026-04-10T13:52:04Z</time></trkpt><trkpt lat="45.802101904549495" lon="8.678932601665931"><ele>293.0</ele><time>2026-04-10T13:52:05Z</time></trkpt><trkpt lat="45.802021800481505" lon="8.678932601666862"><ele>293.0</ele><time>2026-04-10T13:52:06Z</time></trkpt><trkpt lat="45.80191484514775" lon="8.678962036401938"><ele>293.0</ele><time>2026-04-10T13:52:08Z</time></trkpt><trkpt lat="45.80185336776717" lon="8.678986347060249"><ele>293.0</ele><time>2026-04-10T13:52:09Z</time></trkpt><trkpt lat="45.80182586266945" lon="8.679074886171536"><ele>293.5</ele><time>2026-04-10T13:52:10Z</time></trkpt><trkpt lat="45.80181647665045" lon="8.67920813244409"><ele>294.0</ele><time>2026-04-10T13:52:12Z</time></trkpt><trkpt lat="45.8018045868093" lon="8.679309904926402"><ele>294.5</ele><time>2026-04-10T13:52:13Z</time></trkpt><trkpt lat="45.80179228923712" lon="8.679399229602609"><ele>295.0</ele><time>2026-04-10T13:52:14Z</time></trkpt><trkpt lat="45.801761908153985" lon="8.679497488800333"><ele>295.5</ele><time>2026-04-10T13:52:16Z</time></trkpt><trkpt lat="45.801754283379026" lon="8.679615611031826"><ele>296.0</ele><time>2026-04-10T13:52:18Z</time></trkpt><trkpt lat="45.80172270511519" lon="8.679739585727537"><ele>297.33333333333337</ele><time>2026-04-10T13:52:22Z</time></trkpt><trkpt lat="45.801699499472036" lon="8.679888194749497"><ele>298.6666666666667</ele><time>2026-04-10T13:52:24Z</time></trkpt><trkpt lat="45.801682131276635" lon="8.67999942086738"><ele>300.0</ele><time>2026-04-10T13:52:25Z</time></trkpt><trkpt lat="45.80166561595663" lon="8.680101303457803"><ele>301.3333333333333</ele><time>2026-04-10T13:52:26Z</time></trkpt><trkpt lat="45.80165582057085" lon="8.680237953917608"><ele>302.66666666666663</ele><time>2026-04-10T13:52:27Z</time></trkpt><trkpt lat="45.80163140586659" lon="8.68034066442462"><ele>304.0</ele><time>2026-04-10T13:52:28Z</time></trkpt><trkpt lat="45.80162139068585" lon="8.68044100802927"><ele>305.16666666666663</ele><time>2026-04-10T13:52:29Z</time></trkpt><trkpt lat="45.80160234639495" lon="8.68055027470703"><ele>306.3333333333333</ele><time>2026-04-10T13:52:30Z</time></trkpt><trkpt lat="45.801572336025124" lon="8.680654891538861"><ele>307.5</ele><time>2026-04-10T13:52:31Z</time></trkpt><trkpt lat="45.801563691652326" lon="8.680768878858975"><ele>308.6666666666667</ele><time>2026-04-10T13:52:32Z</time></trkpt><trkpt lat="45.8015374621885" lon="8.680874981917412"><ele>309.83333333333337</ele><time>2026-04-10T13:52:33Z</time></trkpt><trkpt lat="45.801517154776604" lon="8.680975904881807"><ele>311.0</ele><time>2026-04-10T13:52:34Z</time></trkpt><trkpt lat="45.80149814522002" lon="8.68108007822241"><ele>312.1666666666667</ele><time>2026-04-10T13:52:35Z</time></trkpt><trkpt lat="45.801483454397676" lon="8.681184079456354"><ele>313.33333333333337</ele><time>2026-04-10T13:52:36Z</time></trkpt><trkpt lat="45.80147414051229" lon="8.681295396516278"><ele>314.5</ele><time>2026-04-10T13:52:37Z</time></trkpt><trkpt lat="45.801453964301686" lon="8.681404852070505"><ele>315.6666666666667</ele><time>2026-04-10T13:52:38Z</time></trkpt><trkpt lat="45.80143468279778" lon="8.681531408152082"><ele>316.8333333333333</ele><time>2026-04-10T13:52:39Z</time></trkpt><trkpt lat="45.80139848552012" lon="8.681650566658806"><ele>318.0</ele><time>2026-04-10T13:52:40Z</time></trkpt><trkpt lat="45.80137563855444" lon="8.681778942324184"><ele>318.0</ele><time>2026-04-10T13:52:41Z</time></trkpt><trkpt lat="45.801370214952414" lon="8.681917105677703"><ele>318.0</ele><time>2026-04-10T13:52:42Z</time></trkpt><trkpt lat="45.8013418203864" lon="8.682044722363056"><ele>318.0</ele><time>2026-04-10T13:52:43Z</time></trkpt><trkpt lat="45.80131929087687" lon="8.68216399694909"><ele>318.0</ele><time>2026-04-10T13:52:44Z</time></trkpt><trkpt lat="45.801310231371325" lon="8.682271774932534"><ele>318.0</ele><time>2026-04-10T13:52:45Z</time></trkpt><trkpt lat="45.801308436904804" lon="8.682380081797591"><ele>318.0</ele><time>2026-04-10T13:52:46Z</time></trkpt><trkpt lat="45.80134057945745" lon="8.682489483969002"><ele>320.0</ele><time>2026-04-10T13:52:47Z</time></trkpt><trkpt lat="45.80140609902941" lon="8.682602994801515"><ele>322.0</ele><time>2026-04-10T13:52:48Z</time></trkpt><trkpt lat="45.80144930099674" lon="8.682714512897434"><ele>324.0</ele><time>2026-04-10T13:52:49Z</time></trkpt><trkpt lat="45.801481007525396" lon="8.682824662003348"><ele>326.0</ele><time>2026-04-10T13:52:50Z</time></trkpt><trkpt lat="45.80150329372758" lon="8.68292860843378"><ele>328.0</ele><time>2026-04-10T13:52:51Z</time></trkpt><trkpt lat="45.8014839697853" lon="8.683034074628027"><ele>330.0</ele><time>2026-04-10T13:52:52Z</time></trkpt><trkpt lat="45.80150142742725" lon="8.68313709688631"><ele>331.8333333333333</ele><time>2026-04-10T13:52:53Z</time></trkpt><trkpt lat="45.80148555631408" lon="8.683248700956446"><ele>333.6666666666667</ele><time>2026-04-10T13:52:54Z</time></trkpt><trkpt lat="45.80148555631809" lon="8.683350955878561"><ele>335.5</ele><time>2026-04-10T13:52:55Z</time></trkpt><trkpt lat="45.801478727817845" lon="8.683521177018193"><ele>337.33333333333337</ele><time>2026-04-10T13:52:57Z</time></trkpt><trkpt lat="45.801472362685836" lon="8.683639270651392"><ele>339.1666666666667</ele><time>2026-04-10T13:52:59Z</time></trkpt><trkpt lat="45.80146684333386" lon="8.683741672207727"><ele>341.0</ele><time>2026-04-10T13:53:02Z</time></trkpt><trkpt lat="45.801460182065746" lon="8.68388829333395"><ele>342.6</ele><time>2026-04-10T13:53:05Z</time></trkpt><trkpt lat="45.80145311263157" lon="8.684034242106748"><ele>344.20000000000005</ele><time>2026-04-10T13:53:07Z</time></trkpt><trkpt lat="45.80144907747514" lon="8.684182896964584"><ele>345.79999999999995</ele><time>2026-04-10T13:53:09Z</time></trkpt><trkpt lat="45.80143203266189" lon="8.684275872441713"><ele>347.4</ele><time>2026-04-10T13:53:10Z</time></trkpt><trkpt lat="45.80142048544933" lon="8.684444049634676"><ele>349.0</ele><time>2026-04-10T13:53:12Z</time></trkpt><trkpt lat="45.80141288425879" lon="8.684538690627006"><ele>349.4285714285714</ele><time>2026-04-10T13:53:13Z</time></trkpt><trkpt lat="45.801405231694375" lon="8.684635268569364"><ele>349.85714285714283</ele><time>2026-04-10T13:53:14Z</time></trkpt><trkpt lat="45.80141139847475" lon="8.684739413879992"><ele>350.2857142857143</ele><time>2026-04-10T13:53:15Z</time></trkpt><trkpt lat="45.80140703179063" lon="8.684829559759857"><ele>350.71428571428567</ele><time>2026-04-10T13:53:16Z</time></trkpt><trkpt lat="45.801413877705805" lon="8.684955093834857"><ele>351.1428571428571</ele><time>2026-04-10T13:53:18Z</time></trkpt><trkpt lat="45.8014258586564" lon="8.685049959471545"><ele>351.57142857142856</ele><time>2026-04-10T13:53:23Z</time></trkpt><trkpt lat="45.801412929965345" lon="8.685159772885152"><ele>352.0</ele><time>2026-04-10T13:53:34Z</time></trkpt><trkpt lat="45.801298361406744" lon="8.685229359860484"><ele>348.6</ele><time>2026-04-10T13:53:35Z</time></trkpt><trkpt lat="45.80123685182216" lon="8.685274595836928"><ele>345.20000000000005</ele><time>2026-04-10T13:53:37Z</time></trkpt><trkpt lat="45.80116596771625" lon="8.685288734000325"><ele>341.8</ele><time>2026-04-10T13:53:39Z</time></trkpt><trkpt lat="45.801062768614834" lon="8.685305535019811"><ele>338.4</ele><time>2026-04-10T13:53:41Z</time></trkpt><trkpt lat="45.80096307639657" lon="8.685385952881406"><ele>335.0</ele><time>2026-04-10T13:53:43Z</time></trkpt><trkpt lat="45.800860776364615" lon="8.68538330404487"><ele>334.6666666666667</ele><time>2026-04-10T13:53:45Z</time></trkpt><trkpt lat="45.80078256767954" lon="8.685459667035746"><ele>334.33333333333337</ele><time>2026-04-10T13:53:47Z</time></trkpt><trkpt lat="45.80071141968558" lon="8.685431612252021"><ele>334.0</ele><time>2026-04-10T13:53:50Z</time></trkpt><trkpt lat="45.800647102414246" lon="8.685435942290539"><ele>333.6666666666667</ele><time>2026-04-10T13:53:52Z</time></trkpt><trkpt lat="45.80055160054808" lon="8.685420823613224"><ele>333.3333333333333</ele><time>2026-04-10T13:53:55Z</time></trkpt><trkpt lat="45.800480362519295" lon="8.685364240654167"><ele>333.0</ele><time>2026-04-10T13:53:57Z</time></trkpt><trkpt lat="45.80040133665053" lon="8.68532231564482"><ele>334.79999999999995</ele><time>2026-04-10T13:53:59Z</time></trkpt><trkpt lat="45.80030582660344" lon="8.685231474376343"><ele>336.6</ele><time>2026-04-10T13:54:02Z</time></trkpt><trkpt lat="45.80023045964204" lon="8.685172057515118"><ele>338.4</ele><time>2026-04-10T13:54:04Z</time></trkpt><trkpt lat="45.800136282476366" lon="8.685125229926287"><ele>340.20000000000005</ele><time>2026-04-10T13:54:06Z</time></trkpt><trkpt lat="45.80006334481126" lon="8.685062508316207"><ele>342.0</ele><time>2026-04-10T13:54:08Z</time></trkpt><trkpt lat="45.800001905034705" lon="8.685031766369553"><ele>342.0</ele><time>2026-04-10T13:54:10Z</time></trkpt><trkpt lat="45.79991178848549" lon="8.684962252218744"><ele>342.0</ele><time>2026-04-10T13:54:12Z</time></trkpt><trkpt lat="45.79984323548088" lon="8.684898841253926"><ele>342.0</ele><time>2026-04-10T13:54:14Z</time></trkpt><trkpt lat="45.79979250948076" lon="8.684844088072529"><ele>342.0</ele><time>2026-04-10T13:54:15Z</time></trkpt><trkpt lat="45.79969417927902" lon="8.684773548715294"><ele>342.0</ele><time>2026-04-10T13:54:17Z</time></trkpt><trkpt lat="45.79959245635575" lon="8.684697489129269"><ele>342.0</ele><time>2026-04-10T13:54:19Z</time></trkpt><trkpt lat="45.79947368135134" lon="8.68461674708578"><ele>342.0</ele><time>2026-04-10T13:54:21Z</time></trkpt><trkpt lat="45.79938890580793" lon="8.68462109767285"><ele>342.0</ele><time>2026-04-10T13:54:23Z</time></trkpt><trkpt lat="45.79926390806719" lon="8.684599419007174"><ele>342.0</ele><time>2026-04-10T13:54:25Z</time></trkpt><trkpt lat="45.799197839487455" lon="8.684582940306955"><ele>342.0</ele><time>2026-04-10T13:54:26Z</time></trkpt><trkpt lat="45.799077551334825" lon="8.684545508515704"><ele>341.5</ele><time>2026-04-10T13:54:28Z</time></trkpt><trkpt lat="45.79899760162024" lon="8.68449020943641"><ele>341.0</ele><time>2026-04-10T13:54:30Z</time></trkpt><trkpt lat="45.79889399294695" lon="8.684489441409067"><ele>340.5</ele><time>2026-04-10T13:54:32Z</time></trkpt><trkpt lat="45.798790032171325" lon="8.684507775821338"><ele>340.0</ele><time>2026-04-10T13:54:34Z</time></trkpt><trkpt lat="45.79872683877542" lon="8.684504970798525"><ele>339.5</ele><time>2026-04-10T13:54:35Z</time></trkpt><trkpt lat="45.798668973331075" lon="8.684464032109009"><ele>339.0</ele><time>2026-04-10T13:54:36Z</time></trkpt><trkpt lat="45.79855879242509" lon="8.684450191018724"><ele>339.6</ele><time>2026-04-10T13:54:38Z</time></trkpt><trkpt lat="45.79846411898541" lon="8.684453792066979"><ele>340.2</ele><time>2026-04-10T13:54:40Z</time></trkpt><trkpt lat="45.79832925339049" lon="8.684458911722784"><ele>340.8</ele><time>2026-04-10T13:54:42Z</time></trkpt><trkpt lat="45.79822286042251" lon="8.684440666232499"><ele>341.40000000000003</ele><time>2026-04-10T13:54:44Z</time></trkpt><trkpt lat="45.79811720754645" lon="8.684439434660671"><ele>342.0</ele><time>2026-04-10T13:54:46Z</time></trkpt><trkpt lat="45.79804276905571" lon="8.684424685859447"><ele>342.3333333333333</ele><time>2026-04-10T13:54:47Z</time></trkpt><trkpt lat="45.79797581629705" lon="8.684418251748816"><ele>342.6666666666667</ele><time>2026-04-10T13:54:48Z</time></trkpt><trkpt lat="45.797904726157114" lon="8.68441662042223"><ele>343.0</ele><time>2026-04-10T13:54:49Z</time></trkpt><trkpt lat="45.797821848472495" lon="8.684412724752589"><ele>343.33333333333337</ele><time>2026-04-10T13:54:50Z</time></trkpt><trkpt lat="45.797713315766494" lon="8.684398718988836"><ele>343.6666666666667</ele><time>2026-04-10T13:54:52Z</time></trkpt><trkpt lat="45.79764461331687" lon="8.684386787475662"><ele>344.0</ele><time>2026-04-10T13:54:53Z</time></trkpt><trkpt lat="45.79752480030613" lon="8.684374285367344"><ele>344.0</ele><time>2026-04-10T13:54:55Z</time></trkpt><trkpt lat="45.79746006238217" lon="8.684351634221525"><ele>344.0</ele><time>2026-04-10T13:54:56Z</time></trkpt><trkpt lat="45.797360887432276" lon="8.684355446426178"><ele>344.0</ele><time>2026-04-10T13:54:58Z</time></trkpt><trkpt lat="45.79727333325233" lon="8.684359407356748"><ele>344.0</ele><time>2026-04-10T13:55:00Z</time></trkpt><trkpt lat="45.79717777421627" lon="8.68433206779984"><ele>344.0</ele><time>2026-04-10T13:55:02Z</time></trkpt><trkpt lat="45.79707547183784" lon="8.684321321482454"><ele>344.0</ele><time>2026-04-10T13:55:04Z</time></trkpt><trkpt lat="45.796990902209146" lon="8.684326260404744"><ele>344.0</ele><time>2026-04-10T13:55:06Z</time></trkpt><trkpt lat="45.796931884904076" lon="8.68429047030331"><ele>344.0</ele><time>2026-04-10T13:55:07Z</time></trkpt><trkpt lat="45.796855271660256" lon="8.684294605628232"><ele>344.0</ele><time>2026-04-10T13:55:08Z</time></trkpt><trkpt lat="45.796788372377186" lon="8.68429905522373"><ele>344.0</ele><time>2026-04-10T13:55:09Z</time></trkpt><trkpt lat="45.796696458077804" lon="8.684272293628544"><ele>344.0</ele><time>2026-04-10T13:55:11Z</time></trkpt><trkpt lat="45.796576067356504" lon="8.684253221751893"><ele>342.83333333333337</ele><time>2026-04-10T13:55:13Z</time></trkpt><trkpt lat="45.796512432512976" lon="8.684244451448023"><ele>341.6666666666667</ele><time>2026-04-10T13:55:14Z</time></trkpt><trkpt lat="45.796433827209775" lon="8.684228538621811"><ele>340.5</ele><time>2026-04-10T13:55:15Z</time></trkpt><trkpt lat="45.79637032194267" lon="8.684232290007873"><ele>339.3333333333333</ele><time>2026-04-10T13:55:16Z</time></trkpt><trkpt lat="45.79623355991776" lon="8.684222219325791"><ele>338.16666666666663</ele><time>2026-04-10T13:55:18Z</time></trkpt><trkpt lat="45.79614020935545" lon="8.684201768143456"><ele>337.0</ele><time>2026-04-10T13:55:20Z</time></trkpt><trkpt lat="45.79607448329917" lon="8.68419843780405"><ele>336.0</ele><time>2026-04-10T13:55:24Z</time></trkpt><trkpt lat="45.795990231332574" lon="8.68419833387919"><ele>335.0</ele><time>2026-04-10T13:55:28Z</time></trkpt><trkpt lat="45.79591571002937" lon="8.684222880872431"><ele>334.0</ele><time>2026-04-10T13:55:31Z</time></trkpt><trkpt lat="45.79581250811681" lon="8.684237199859973"><ele>333.0</ele><time>2026-04-10T13:55:40Z</time></trkpt><trkpt lat="45.79570603824082" lon="8.684242728180088"><ele>332.0</ele><time>2026-04-10T13:55:43Z</time></trkpt><trkpt lat="45.79563485943711" lon="8.684241989753314"><ele>331.0</ele><time>2026-04-10T13:55:44Z</time></trkpt><trkpt lat="45.79553783076537" lon="8.684245940066166"><ele>331.0</ele><time>2026-04-10T13:55:46Z</time></trkpt><trkpt lat="45.79547905188962" lon="8.684279049718844"><ele>331.0</ele><time>2026-04-10T13:55:48Z</time></trkpt><trkpt lat="45.79538450453498" lon="8.684312045398395"><ele>331.0</ele><time>2026-04-10T13:55:50Z</time></trkpt><trkpt lat="45.79529233247195" lon="8.684269271679504"><ele>331.0</ele><time>2026-04-10T13:55:52Z</time></trkpt><trkpt lat="45.79516163543422" lon="8.684290382957341"><ele>331.0</ele><time>2026-04-10T13:55:54Z</time></trkpt><trkpt lat="45.79507810963103" lon="8.68432658900471"><ele>330.5</ele><time>2026-04-10T13:55:56Z</time></trkpt><trkpt lat="45.795015784687024" lon="8.684379130243371"><ele>330.0</ele><time>2026-04-10T13:55:58Z</time></trkpt><trkpt lat="45.794934416704734" lon="8.684342349701673"><ele>329.5</ele><time>2026-04-10T13:56:00Z</time></trkpt><trkpt lat="45.79483221400976" lon="8.684346199263066"><ele>329.0</ele><time>2026-04-10T13:56:02Z</time></trkpt><trkpt lat="45.794758693688635" lon="8.684378834051019"><ele>328.5</ele><time>2026-04-10T13:56:04Z</time></trkpt><trkpt lat="45.79469880543974" lon="8.68447693834508"><ele>328.0</ele><time>2026-04-10T13:56:06Z</time></trkpt><trkpt lat="45.794610451814876" lon="8.684504294060666"><ele>328.16666666666663</ele><time>2026-04-10T13:56:08Z</time></trkpt><trkpt lat="45.794531034505944" lon="8.684572729651101"><ele>328.3333333333333</ele><time>2026-04-10T13:56:10Z</time></trkpt><trkpt lat="45.794435932535904" lon="8.68463944778747"><ele>328.5</ele><time>2026-04-10T13:56:12Z</time></trkpt><trkpt lat="45.794364320153775" lon="8.684666606462816"><ele>328.6666666666667</ele><time>2026-04-10T13:56:14Z</time></trkpt><trkpt lat="45.79428532718002" lon="8.684650337416663"><ele>328.83333333333337</ele><time>2026-04-10T13:56:15Z</time></trkpt><trkpt lat="45.794203485641255" lon="8.684651731268996"><ele>329.0</ele><time>2026-04-10T13:56:16Z</time></trkpt><trkpt lat="45.79413565929025" lon="8.68466171957271"><ele>329.0</ele><time>2026-04-10T13:56:17Z</time></trkpt><trkpt lat="45.79405389447378" lon="8.68465580131011"><ele>329.0</ele><time>2026-04-10T13:56:19Z</time></trkpt><trkpt lat="45.79393408765405" lon="8.684672539855423"><ele>329.0</ele><time>2026-04-10T13:56:21Z</time></trkpt><trkpt lat="45.79386873364698" lon="8.68469599757504"><ele>329.0</ele><time>2026-04-10T13:56:22Z</time></trkpt><trkpt lat="45.793786342494585" lon="8.684700929081782"><ele>329.0</ele><time>2026-04-10T13:56:23Z</time></trkpt><trkpt lat="45.793664095617714" lon="8.684692332691968"><ele>329.0</ele><time>2026-04-10T13:56:25Z</time></trkpt><trkpt lat="45.79358853469816" lon="8.684671187888235"><ele>329.0</ele><time>2026-04-10T13:56:27Z</time></trkpt><trkpt lat="45.79349639296754" lon="8.684713965143718"><ele>329.0</ele><time>2026-04-10T13:56:29Z</time></trkpt><trkpt lat="45.79341561498362" lon="8.684730204186032"><ele>329.0</ele><time>2026-04-10T13:56:31Z</time></trkpt><trkpt lat="45.79334017662516" lon="8.684697524490993"><ele>329.0</ele><time>2026-04-10T13:56:33Z</time></trkpt><trkpt lat="45.793273830700784" lon="8.684703453197988"><ele>329.0</ele><time>2026-04-10T13:56:35Z</time></trkpt><trkpt lat="45.793206310413595" lon="8.684757818299802"><ele>328.5</ele><time>2026-04-10T13:56:37Z</time></trkpt><trkpt lat="45.793141546701484" lon="8.684800826452012"><ele>328.0</ele><time>2026-04-10T13:56:38Z</time></trkpt><trkpt lat="45.7930613510174" lon="8.684850404485275"><ele>327.5</ele><time>2026-04-10T13:56:39Z</time></trkpt><trkpt lat="45.79298079074379" lon="8.68490095774332"><ele>327.0</ele><time>2026-04-10T13:56:41Z</time></trkpt><trkpt lat="45.79290483569273" lon="8.684931916251022"><ele>326.5</ele><time>2026-04-10T13:56:44Z</time></trkpt><trkpt lat="45.79284194406768" lon="8.684993212253586"><ele>326.0</ele><time>2026-04-10T13:56:46Z</time></trkpt><trkpt lat="45.79277756786909" lon="8.685008927398359"><ele>326.0</ele><time>2026-04-10T13:56:48Z</time></trkpt><trkpt lat="45.79271323417682" lon="8.684992190628455"><ele>326.0</ele><time>2026-04-10T13:56:50Z</time></trkpt><trkpt lat="45.792626965355076" lon="8.684975764323324"><ele>326.0</ele><time>2026-04-10T13:56:52Z</time></trkpt><trkpt lat="45.79254650838908" lon="8.684941373201235"><ele>326.0</ele><time>2026-04-10T13:56:54Z</time></trkpt><trkpt lat="45.79246510040919" lon="8.68495832697314"><ele>326.0</ele><time>2026-04-10T13:56:58Z</time></trkpt><trkpt lat="45.7924026937849" lon="8.684972301727672"><ele>326.0</ele><time>2026-04-10T13:57:00Z</time></trkpt><trkpt lat="45.79233373464939" lon="8.68494821333727"><ele>326.0</ele><time>2026-04-10T13:57:02Z</time></trkpt><trkpt lat="45.792271847552854" lon="8.684861209540694"><ele>326.0</ele><time>2026-04-10T13:57:05Z</time></trkpt><trkpt lat="45.79216066396086" lon="8.684815998152802"><ele>326.0</ele><time>2026-04-10T13:57:07Z</time></trkpt><trkpt lat="45.79206743921988" lon="8.684794434015522"><ele>326.0</ele><time>2026-04-10T13:57:09Z</time></trkpt><trkpt lat="45.79200181031599" lon="8.684784336522426"><ele>326.0</ele><time>2026-04-10T13:57:11Z</time></trkpt><trkpt lat="45.791915646378605" lon="8.684752558745906"><ele>325.6666666666667</ele><time>2026-04-10T13:57:13Z</time></trkpt><trkpt lat="45.79179813075888" lon="8.684747891603669"><ele>325.33333333333337</ele><time>2026-04-10T13:57:15Z</time></trkpt><trkpt lat="45.79170048038756" lon="8.684728824360331"><ele>325.0</ele><time>2026-04-10T13:57:17Z</time></trkpt><trkpt lat="45.791620620908" lon="8.684716813020758"><ele>324.6666666666667</ele><time>2026-04-10T13:57:19Z</time></trkpt><trkpt lat="45.791551483338495" lon="8.684696375563798"><ele>324.3333333333333</ele><time>2026-04-10T13:57:20Z</time></trkpt><trkpt lat="45.79149145721979" lon="8.684656552578632"><ele>324.0</ele><time>2026-04-10T13:57:21Z</time></trkpt><trkpt lat="45.791429670282156" lon="8.684582673478717"><ele>324.0</ele><time>2026-04-10T13:57:23Z</time></trkpt><trkpt lat="45.79133382733759" lon="8.684484412191821"><ele>324.0</ele><time>2026-04-10T13:57:25Z</time></trkpt><trkpt lat="45.79126012510368" lon="8.684392574639837"><ele>324.0</ele><time>2026-04-10T13:57:27Z</time></trkpt><trkpt lat="45.791176482521394" lon="8.68428153108985"><ele>324.0</ele><time>2026-04-10T13:57:29Z</time></trkpt><trkpt lat="45.791095761506384" lon="8.684139306704017"><ele>323.3333333333333</ele><time>2026-04-10T13:57:31Z</time></trkpt><trkpt lat="45.79105744420971" lon="8.684060451720187"><ele>322.6666666666667</ele><time>2026-04-10T13:57:32Z</time></trkpt><trkpt lat="45.790979232120065" lon="8.683968140792418"><ele>322.0</ele><time>2026-04-10T13:57:34Z</time></trkpt><trkpt lat="45.790955524375356" lon="8.68388127258453"><ele>321.33333333333337</ele><time>2026-04-10T13:57:36Z</time></trkpt><trkpt lat="45.79089326324636" lon="8.683817780859554"><ele>320.6666666666667</ele><time>2026-04-10T13:57:51Z</time></trkpt><trkpt lat="45.79080851591447" lon="8.68383586035944"><ele>320.0</ele><time>2026-04-10T13:57:54Z</time></trkpt><trkpt lat="45.790729881485795" lon="8.68383241871996"><ele>320.0</ele><time>2026-04-10T13:57:56Z</time></trkpt><trkpt lat="45.79057854924015" lon="8.683862998705681"><ele>320.0</ele><time>2026-04-10T13:57:58Z</time></trkpt><trkpt lat="45.79047083200148" lon="8.6838981410745"><ele>320.0</ele><time>2026-04-10T13:58:00Z</time></trkpt><trkpt lat="45.790413555582326" lon="8.683939571495578"><ele>320.0</ele><time>2026-04-10T13:58:02Z</time></trkpt><trkpt lat="45.79028759410231" lon="8.683949811364666"><ele>320.0</ele><time>2026-04-10T13:58:04Z</time></trkpt><trkpt lat="45.790213427535555" lon="8.683967622664346"><ele>320.0</ele><time>2026-04-10T13:58:05Z</time></trkpt><trkpt lat="45.79014547370205" lon="8.683982885056569"><ele>320.0</ele><time>2026-04-10T13:58:06Z</time></trkpt><trkpt lat="45.79001415384199" lon="8.684022115775749"><ele>320.0</ele><time>2026-04-10T13:58:08Z</time></trkpt><trkpt lat="45.789932087441834" lon="8.68403712845008"><ele>320.0</ele><time>2026-04-10T13:58:09Z</time></trkpt><trkpt lat="45.78985974860795" lon="8.68405062095128"><ele>320.0</ele><time>2026-04-10T13:58:10Z</time></trkpt><trkpt lat="45.789795856971395" lon="8.684073976057567"><ele>320.0</ele><time>2026-04-10T13:58:11Z</time></trkpt><trkpt lat="45.78973272765919" lon="8.684087185266254"><ele>320.0</ele><time>2026-04-10T13:58:12Z</time></trkpt><trkpt lat="45.78966376593469" lon="8.684103940313964"><ele>320.0</ele><time>2026-04-10T13:58:13Z</time></trkpt><trkpt lat="45.789587427046676" lon="8.684119066287153"><ele>320.0</ele><time>2026-04-10T13:58:14Z</time></trkpt><trkpt lat="45.78945036580948" lon="8.684137933687495"><ele>320.0</ele><time>2026-04-10T13:58:16Z</time></trkpt><trkpt lat="45.78937425517444" lon="8.684157731870563"><ele>320.0</ele><time>2026-04-10T13:58:17Z</time></trkpt><trkpt lat="45.78928320463155" lon="8.684179368357894"><ele>319.6</ele><time>2026-04-10T13:58:19Z</time></trkpt><trkpt lat="45.78913698407623" lon="8.684214827426546"><ele>319.2</ele><time>2026-04-10T13:58:21Z</time></trkpt><trkpt lat="45.78906266576229" lon="8.684224385400542"><ele>318.8</ele><time>2026-04-10T13:58:22Z</time></trkpt><trkpt lat="45.788960851093655" lon="8.684234851570036"><ele>318.4</ele><time>2026-04-10T13:58:24Z</time></trkpt><trkpt lat="45.78889729379481" lon="8.68425955096379"><ele>318.0</ele><time>2026-04-10T13:58:25Z</time></trkpt><trkpt lat="45.788816061416995" lon="8.684290174494308"><ele>318.0</ele><time>2026-04-10T13:58:26Z</time></trkpt><trkpt lat="45.788691614276004" lon="8.684302410686193"><ele>318.0</ele><time>2026-04-10T13:58:28Z</time></trkpt><trkpt lat="45.78862203877227" lon="8.684330689409604"><ele>318.0</ele><time>2026-04-10T13:58:29Z</time></trkpt><trkpt lat="45.7885614280195" lon="8.68437197240395"><ele>318.0</ele><time>2026-04-10T13:58:31Z</time></trkpt><trkpt lat="45.788432149360155" lon="8.684372287731538"><ele>318.0</ele><time>2026-04-10T13:58:33Z</time></trkpt><trkpt lat="45.788322021820996" lon="8.684374339217923"><ele>318.0</ele><time>2026-04-10T13:58:35Z</time></trkpt><trkpt lat="45.7882352011989" lon="8.684404879296478"><ele>318.0</ele><time>2026-04-10T13:58:36Z</time></trkpt><trkpt lat="45.78815334981462" lon="8.684408150562483"><ele>318.0</ele><time>2026-04-10T13:58:37Z</time></trkpt><trkpt lat="45.788068939468026" lon="8.684420750839191"><ele>318.0</ele><time>2026-04-10T13:58:38Z</time></trkpt><trkpt lat="45.787980474706536" lon="8.684382723551836"><ele>318.0</ele><time>2026-04-10T13:58:40Z</time></trkpt><trkpt lat="45.78790232687323" lon="8.684410186798264"><ele>318.0</ele><time>2026-04-10T13:58:43Z</time></trkpt><trkpt lat="45.78781063087318" lon="8.684408737221192"><ele>319.5</ele><time>2026-04-10T13:58:45Z</time></trkpt><trkpt lat="45.78774510682177" lon="8.684433318588924"><ele>321.0</ele><time>2026-04-10T13:58:48Z</time></trkpt><trkpt lat="45.78767704459701" lon="8.684470722798249"><ele>322.5</ele><time>2026-04-10T13:58:50Z</time></trkpt><trkpt lat="45.78757412469957" lon="8.684524732069931"><ele>324.0</ele><time>2026-04-10T13:58:52Z</time></trkpt><trkpt lat="45.78751205036374" lon="8.684581428513653"><ele>325.5</ele><time>2026-04-10T13:58:53Z</time></trkpt><trkpt lat="45.78747347407795" lon="8.684672933562956"><ele>327.0</ele><time>2026-04-10T13:58:55Z</time></trkpt><trkpt lat="45.78740460352693" lon="8.68476472128363"><ele>327.1666666666667</ele><time>2026-04-10T13:58:58Z</time></trkpt><trkpt lat="45.787343256376566" lon="8.684852083612103"><ele>327.3333333333333</ele><time>2026-04-10T13:59:02Z</time></trkpt><trkpt lat="45.7872826433612" lon="8.684886324343818"><ele>327.5</ele><time>2026-04-10T13:59:04Z</time></trkpt><trkpt lat="45.78720797878832" lon="8.684938930732757"><ele>327.66666666666663</ele><time>2026-04-10T13:59:06Z</time></trkpt><trkpt lat="45.78719304472804" lon="8.685094482168962"><ele>327.8333333333333</ele><time>2026-04-10T13:59:08Z</time></trkpt><trkpt lat="45.7871981280356" lon="8.685226717842115"><ele>328.0</ele><time>2026-04-10T13:59:09Z</time></trkpt><trkpt lat="45.787153022182686" lon="8.685350333753535"><ele>327.66666666666663</ele><time>2026-04-10T13:59:10Z</time></trkpt><trkpt lat="45.78709555071662" lon="8.68540869244786"><ele>327.3333333333333</ele><time>2026-04-10T13:59:12Z</time></trkpt><trkpt lat="45.787034142043666" lon="8.685466843457865"><ele>327.0</ele><time>2026-04-10T13:59:14Z</time></trkpt><trkpt lat="45.78693087658698" lon="8.68552312580193"><ele>326.6666666666667</ele><time>2026-04-10T13:59:16Z</time></trkpt><trkpt lat="45.78686815512523" lon="8.685511563375002"><ele>326.33333333333337</ele><time>2026-04-10T13:59:17Z</time></trkpt><trkpt lat="45.78679803953961" lon="8.685513583420713"><ele>326.0</ele><time>2026-04-10T13:59:18Z</time></trkpt><trkpt lat="45.78673220976744" lon="8.685539982872832"><ele>326.0</ele><time>2026-04-10T13:59:19Z</time></trkpt><trkpt lat="45.78661331033032" lon="8.685601342747983"><ele>326.0</ele><time>2026-04-10T13:59:21Z</time></trkpt><trkpt lat="45.786543752205176" lon="8.685634815410248"><ele>326.0</ele><time>2026-04-10T13:59:22Z</time></trkpt><trkpt lat="45.78645585909511" lon="8.685678009673309"><ele>326.0</ele><time>2026-04-10T13:59:23Z</time></trkpt><trkpt lat="45.78636059923596" lon="8.685871982046038"><ele>326.0</ele><time>2026-04-10T13:59:24Z</time></trkpt><trkpt lat="45.786296818028994" lon="8.685892038246399"><ele>326.0</ele><time>2026-04-10T13:59:25Z</time></trkpt><trkpt lat="45.786226239749965" lon="8.685914231830628"><ele>326.0</ele><time>2026-04-10T13:59:26Z</time></trkpt><trkpt lat="45.786107467683884" lon="8.685954797787153"><ele>326.0</ele><time>2026-04-10T13:59:27Z</time></trkpt><trkpt lat="45.786019591353615" lon="8.685985239217311"><ele>326.0</ele><time>2026-04-10T13:59:28Z</time></trkpt><trkpt lat="45.78592955896566" lon="8.686019498741611"><ele>326.0</ele><time>2026-04-10T13:59:29Z</time></trkpt><trkpt lat="45.78582557198732" lon="8.68605929961454"><ele>324.8</ele><time>2026-04-10T13:59:31Z</time></trkpt><trkpt lat="45.78573408119797" lon="8.686096706972318"><ele>323.6</ele><time>2026-04-10T13:59:33Z</time></trkpt><trkpt lat="45.78565617716273" lon="8.68613320316205"><ele>322.4</ele><time>2026-04-10T13:59:34Z</time></trkpt><trkpt lat="45.785544786471064" lon="8.686188963085955"><ele>321.2</ele><time>2026-04-10T13:59:36Z</time></trkpt><trkpt lat="45.78546147641912" lon="8.686238401513656"><ele>320.0</ele><time>2026-04-10T13:59:39Z</time></trkpt><trkpt lat="45.78538255183647" lon="8.686292124162271"><ele>320.0</ele><time>2026-04-10T13:59:41Z</time></trkpt><trkpt lat="45.78530660106545" lon="8.686351954954349"><ele>320.0</ele><time>2026-04-10T13:59:43Z</time></trkpt><trkpt lat="45.78520083199109" lon="8.686436961224565"><ele>320.0</ele><time>2026-04-10T13:59:45Z</time></trkpt><trkpt lat="45.78512534555242" lon="8.686497629376278"><ele>320.0</ele><time>2026-04-10T13:59:46Z</time></trkpt><trkpt lat="45.78505013667621" lon="8.686556261954355"><ele>320.0</ele><time>2026-04-10T13:59:47Z</time></trkpt><trkpt lat="45.78499465645234" lon="8.686599346042195"><ele>320.0</ele><time>2026-04-10T13:59:48Z</time></trkpt><trkpt lat="45.784891549669" lon="8.68668305735995"><ele>322.33333333333337</ele><time>2026-04-10T13:59:50Z</time></trkpt><trkpt lat="45.78480994015336" lon="8.686739521999733"><ele>324.6666666666667</ele><time>2026-04-10T13:59:51Z</time></trkpt><trkpt lat="45.78472342381376" lon="8.686783137313725"><ele>327.0</ele><time>2026-04-10T13:59:54Z</time></trkpt><trkpt lat="45.78454445342088" lon="8.686488858649104"><ele>327.0</ele><time>2026-04-10T13:59:57Z</time></trkpt><trkpt lat="45.78453942292913" lon="8.686600077220005"><ele>327.0</ele><time>2026-04-10T13:59:59Z</time></trkpt><trkpt lat="45.7845352332256" lon="8.686692706120725"><ele>327.0</ele><time>2026-04-10T14:00:08Z</time></trkpt><trkpt lat="45.784529958620396" lon="8.686809319817035"><ele>327.0</ele><time>2026-04-10T14:00:11Z</time></trkpt><trkpt lat="45.78453711542391" lon="8.68692897887378"><ele>327.0</ele><time>2026-04-10T14:00:13Z</time></trkpt><trkpt lat="45.78448737431274" lon="8.687086138103874"><ele>327.0</ele><time>2026-04-10T14:00:15Z</time></trkpt><trkpt lat="45.7844367154272" lon="8.687159428969563"><ele>326.40000000000003</ele><time>2026-04-10T14:00:17Z</time></trkpt><trkpt lat="45.78439371461589" lon="8.687253017740996"><ele>325.8</ele><time>2026-04-10T14:00:19Z</time></trkpt><trkpt lat="45.78432703572545" lon="8.687381804544207"><ele>325.2</ele><time>2026-04-10T14:00:21Z</time></trkpt><trkpt lat="45.78426986910701" lon="8.687476616825485"><ele>324.6</ele><time>2026-04-10T14:00:22Z</time></trkpt><trkpt lat="45.7842641762852" lon="8.68760627804625"><ele>324.0</ele><time>2026-04-10T14:00:23Z</time></trkpt><trkpt lat="45.784241398591796" lon="8.687720561377894"><ele>324.5</ele><time>2026-04-10T14:00:24Z</time></trkpt><trkpt lat="45.7842138330787" lon="8.687823170289185"><ele>325.0</ele><time>2026-04-10T14:00:25Z</time></trkpt><trkpt lat="45.78418011286138" lon="8.687931859745788"><ele>325.5</ele><time>2026-04-10T14:00:26Z</time></trkpt><trkpt lat="45.78415724420436" lon="8.688050155993162"><ele>326.0</ele><time>2026-04-10T14:00:27Z</time></trkpt><trkpt lat="45.78412504526912" lon="8.688144320076056"><ele>326.5</ele><time>2026-04-10T14:00:28Z</time></trkpt><trkpt lat="45.78407245178741" lon="8.688237508722345"><ele>327.0</ele><time>2026-04-10T14:00:29Z</time></trkpt><trkpt lat="45.78403075045917" lon="8.68834318257436"><ele>327.0</ele><time>2026-04-10T14:00:30Z</time></trkpt><trkpt lat="45.78399128999131" lon="8.688445506941735"><ele>327.0</ele><time>2026-04-10T14:00:31Z</time></trkpt><trkpt lat="45.78395487138719" lon="8.688540546968627"><ele>327.0</ele><time>2026-04-10T14:00:32Z</time></trkpt><trkpt lat="45.78392143253522" lon="8.688626699491367"><ele>327.0</ele><time>2026-04-10T14:00:33Z</time></trkpt><trkpt lat="45.78390752043919" lon="8.688780583678984"><ele>327.0</ele><time>2026-04-10T14:00:35Z</time></trkpt><trkpt lat="45.783959867749346" lon="8.688939505313417"><ele>326.1666666666667</ele><time>2026-04-10T14:00:37Z</time></trkpt><trkpt lat="45.783978056322084" lon="8.68902940787727"><ele>325.3333333333333</ele><time>2026-04-10T14:00:38Z</time></trkpt><trkpt lat="45.7840202569323" lon="8.689135151755865"><ele>324.5</ele><time>2026-04-10T14:00:40Z</time></trkpt><trkpt lat="45.784064412407055" lon="8.689257412969102"><ele>323.66666666666663</ele><time>2026-04-10T14:00:42Z</time></trkpt><trkpt lat="45.7840797440388" lon="8.689381180284439"><ele>322.8333333333333</ele><time>2026-04-10T14:00:44Z</time></trkpt><trkpt lat="45.784081039316725" lon="8.689544984410265"><ele>322.0</ele><time>2026-04-10T14:00:46Z</time></trkpt><trkpt lat="45.78408950740992" lon="8.689678968117537"><ele>319.0</ele><time>2026-04-10T14:00:48Z</time></trkpt><trkpt lat="45.78412737772288" lon="8.689824113427054"><ele>316.0</ele><time>2026-04-10T14:00:50Z</time></trkpt><trkpt lat="45.7841610912548" lon="8.689957609555497"><ele>313.0</ele><time>2026-04-10T14:00:52Z</time></trkpt><trkpt lat="45.78416341902561" lon="8.690099054893903"><ele>310.0</ele><time>2026-04-10T14:00:54Z</time></trkpt><trkpt lat="45.784158790831206" lon="8.690189118210862"><ele>307.0</ele><time>2026-04-10T14:00:55Z</time></trkpt><trkpt lat="45.784151943348206" lon="8.690290794770627"><ele>304.0</ele><time>2026-04-10T14:00:56Z</time></trkpt><trkpt lat="45.784110368121596" lon="8.69043952383357"><ele>300.2</ele><time>2026-04-10T14:00:58Z</time></trkpt><trkpt lat="45.784073976919764" lon="8.690521086119212"><ele>296.4</ele><time>2026-04-10T14:00:59Z</time></trkpt><trkpt lat="45.78400814564442" lon="8.69065468589906"><ele>292.6</ele><time>2026-04-10T14:01:01Z</time></trkpt><trkpt lat="45.783924772395466" lon="8.6907524228698"><ele>288.8</ele><time>2026-04-10T14:01:03Z</time></trkpt><trkpt lat="45.78383333469336" lon="8.690840682471313"><ele>285.0</ele><time>2026-04-10T14:01:05Z</time></trkpt><trkpt lat="45.783739670794894" lon="8.690927262963674"><ele>285.0</ele><time>2026-04-10T14:01:07Z</time></trkpt><trkpt lat="45.78364946695689" lon="8.691010660104604"><ele>285.0</ele><time>2026-04-10T14:01:09Z</time></trkpt><trkpt lat="45.78357008311016" lon="8.691103085264292"><ele>285.0</ele><time>2026-04-10T14:01:11Z</time></trkpt><trkpt lat="45.78349739796693" lon="8.691174261512947"><ele>285.0</ele><time>2026-04-10T14:01:13Z</time></trkpt><trkpt lat="45.78342630353487" lon="8.69123332188631"><ele>285.0</ele><time>2026-04-10T14:01:15Z</time></trkpt><trkpt lat="45.78336977172607" lon="8.691301902273196"><ele>283.8333333333333</ele><time>2026-04-10T14:01:17Z</time></trkpt><trkpt lat="45.78328739592008" lon="8.69134848966585"><ele>282.6666666666667</ele><time>2026-04-10T14:01:19Z</time></trkpt><trkpt lat="45.7832350237622" lon="8.691401060567653"><ele>281.5</ele><time>2026-04-10T14:01:20Z</time></trkpt><trkpt lat="45.783172348978034" lon="8.69130727752562"><ele>280.33333333333337</ele><time>2026-04-10T14:01:21Z</time></trkpt><trkpt lat="45.78310733963649" lon="8.691455203814394"><ele>279.1666666666667</ele><time>2026-04-10T14:01:22Z</time></trkpt><trkpt lat="45.78307334825985" lon="8.691559444805335"><ele>278.0</ele><time>2026-04-10T14:01:23Z</time></trkpt><trkpt lat="45.7830400856788" lon="8.691684901652273"><ele>278.0</ele><time>2026-04-10T14:01:24Z</time></trkpt><trkpt lat="45.78299026744138" lon="8.691807983354867"><ele>278.0</ele><time>2026-04-10T14:01:25Z</time></trkpt><trkpt lat="45.78295038169298" lon="8.691907394508982"><ele>278.0</ele><time>2026-04-10T14:01:26Z</time></trkpt><trkpt lat="45.78291908120672" lon="8.691994686958752"><ele>278.0</ele><time>2026-04-10T14:01:27Z</time></trkpt><trkpt lat="45.78288686865742" lon="8.692076476700747"><ele>278.0</ele><time>2026-04-10T14:01:28Z</time></trkpt><trkpt lat="45.78285163680908" lon="8.692163341406387"><ele>278.0</ele><time>2026-04-10T14:01:29Z</time></trkpt><trkpt lat="45.78281797345766" lon="8.692250140207058"><ele>277.83333333333337</ele><time>2026-04-10T14:01:30Z</time></trkpt><trkpt lat="45.78278378487089" lon="8.692340233419307"><ele>277.6666666666667</ele><time>2026-04-10T14:01:31Z</time></trkpt><trkpt lat="45.782738070718494" lon="8.692442907048086"><ele>277.5</ele><time>2026-04-10T14:01:32Z</time></trkpt><trkpt lat="45.78268775648705" lon="8.692556100614867"><ele>277.3333333333333</ele><time>2026-04-10T14:01:33Z</time></trkpt><trkpt lat="45.78263970192064" lon="8.692676343486868"><ele>277.16666666666663</ele><time>2026-04-10T14:01:34Z</time></trkpt><trkpt lat="45.782591675811865" lon="8.692796079122136"><ele>277.0</ele><time>2026-04-10T14:01:35Z</time></trkpt><trkpt lat="45.7825460117165" lon="8.6929179303272"><ele>275.0</ele><time>2026-04-10T14:01:36Z</time></trkpt><trkpt lat="45.78249611986423" lon="8.693037804512612"><ele>273.0</ele><time>2026-04-10T14:01:37Z</time></trkpt><trkpt lat="45.78244795273207" lon="8.693153265456198"><ele>271.0</ele><time>2026-04-10T14:01:38Z</time></trkpt><trkpt lat="45.7824076036743" lon="8.693264518230814"><ele>269.0</ele><time>2026-04-10T14:01:39Z</time></trkpt><trkpt lat="45.782353702375644" lon="8.693368230962601"><ele>267.0</ele><time>2026-04-10T14:01:40Z</time></trkpt><trkpt lat="45.782295043052606" lon="8.693504610200796"><ele>265.8</ele><time>2026-04-10T14:01:41Z</time></trkpt><trkpt lat="45.782239158973155" lon="8.693620621497088"><ele>264.6</ele><time>2026-04-10T14:01:42Z</time></trkpt><trkpt lat="45.78218799614954" lon="8.693733856593143"><ele>263.40000000000003</ele><time>2026-04-10T14:01:43Z</time></trkpt><trkpt lat="45.78212623029778" lon="8.693851226957994"><ele>262.2</ele><time>2026-04-10T14:01:44Z</time></trkpt><trkpt lat="45.78206693734676" lon="8.693975141951373"><ele>261.0</ele><time>2026-04-10T14:01:45Z</time></trkpt><trkpt lat="45.78200986527235" lon="8.694100901175636"><ele>261.0</ele><time>2026-04-10T14:01:46Z</time></trkpt><trkpt lat="45.781947590718474" lon="8.694218868627823"><ele>261.0</ele><time>2026-04-10T14:01:47Z</time></trkpt><trkpt lat="45.78188928409355" lon="8.694336977953704"><ele>261.0</ele><time>2026-04-10T14:01:48Z</time></trkpt><trkpt lat="45.781828976671406" lon="8.694455222973396"><ele>261.0</ele><time>2026-04-10T14:01:49Z</time></trkpt><trkpt lat="45.781772591652974" lon="8.694569025276113"><ele>261.0</ele><time>2026-04-10T14:01:50Z</time></trkpt><trkpt lat="45.781712548144384" lon="8.694676698886218"><ele>260.3333333333333</ele><time>2026-04-10T14:01:51Z</time></trkpt><trkpt lat="45.78165843322473" lon="8.694780366345679"><ele>259.6666666666667</ele><time>2026-04-10T14:01:52Z</time></trkpt><trkpt lat="45.7816067724616" lon="8.694884731856398"><ele>259.0</ele><time>2026-04-10T14:01:53Z</time></trkpt><trkpt lat="45.78155966302366" lon="8.694983911244677"><ele>258.33333333333337</ele><time>2026-04-10T14:01:54Z</time></trkpt><trkpt lat="45.78150772429328" lon="8.695078239612211"><ele>257.6666666666667</ele><time>2026-04-10T14:01:55Z</time></trkpt><trkpt lat="45.78145153472067" lon="8.695187396479767"><ele>257.0</ele><time>2026-04-10T14:01:56Z</time></trkpt><trkpt lat="45.78139279889553" lon="8.69529710444341"><ele>256.1666666666667</ele><time>2026-04-10T14:01:57Z</time></trkpt><trkpt lat="45.781339929696706" lon="8.695409425446007"><ele>255.33333333333334</ele><time>2026-04-10T14:01:58Z</time></trkpt><trkpt lat="45.78128758268123" lon="8.695504646580211"><ele>254.5</ele><time>2026-04-10T14:01:59Z</time></trkpt><trkpt lat="45.781235307096374" lon="8.69560199078914"><ele>253.66666666666669</ele><time>2026-04-10T14:02:00Z</time></trkpt><trkpt lat="45.781185793209204" lon="8.695697985251712"><ele>252.83333333333334</ele><time>2026-04-10T14:02:01Z</time></trkpt><trkpt lat="45.78113926670346" lon="8.695790401232086"><ele>252.0</ele><time>2026-04-10T14:02:02Z</time></trkpt><trkpt lat="45.78109455557687" lon="8.695884256454036"><ele>252.0</ele><time>2026-04-10T14:02:03Z</time></trkpt><trkpt lat="45.78104073764783" lon="8.695983092884578"><ele>252.0</ele><time>2026-04-10T14:02:04Z</time></trkpt><trkpt lat="45.78097525717248" lon="8.696100647986073"><ele>252.0</ele><time>2026-04-10T14:02:05Z</time></trkpt><trkpt lat="45.780909002586604" lon="8.696221957589623"><ele>252.0</ele><time>2026-04-10T14:02:06Z</time></trkpt><trkpt lat="45.78084609341693" lon="8.69635625280017"><ele>252.0</ele><time>2026-04-10T14:02:07Z</time></trkpt><trkpt lat="45.780787200466385" lon="8.696483332262448"><ele>251.83333333333334</ele><time>2026-04-10T14:02:08Z</time></trkpt><trkpt lat="45.780728863478224" lon="8.696597250931188"><ele>251.66666666666669</ele><time>2026-04-10T14:02:09Z</time></trkpt><trkpt lat="45.78067483307835" lon="8.696708706453284"><ele>251.5</ele><time>2026-04-10T14:02:10Z</time></trkpt><trkpt lat="45.78062536687372" lon="8.696810534319336"><ele>251.33333333333334</ele><time>2026-04-10T14:02:11Z</time></trkpt><trkpt lat="45.78057779036602" lon="8.696909537795305"><ele>251.16666666666669</ele><time>2026-04-10T14:02:12Z</time></trkpt><trkpt lat="45.780535861411686" lon="8.696986685355219"><ele>251.0</ele><time>2026-04-10T14:02:13Z</time></trkpt><trkpt lat="45.7804991398981" lon="8.69706436559464"><ele>250.83333333333334</ele><time>2026-04-10T14:02:14Z</time></trkpt><trkpt lat="45.78045104159555" lon="8.697152124357856"><ele>250.66666666666669</ele><time>2026-04-10T14:02:15Z</time></trkpt><trkpt lat="45.7803976857363" lon="8.697262301459688"><ele>250.5</ele><time>2026-04-10T14:02:16Z</time></trkpt><trkpt lat="45.780337480084796" lon="8.697376369156535"><ele>250.33333333333331</ele><time>2026-04-10T14:02:17Z</time></trkpt><trkpt lat="45.780279050954356" lon="8.697468025405602"><ele>250.16666666666666</ele><time>2026-04-10T14:02:18Z</time></trkpt><trkpt lat="45.780225609251026" lon="8.697570609972988"><ele>250.0</ele><time>2026-04-10T14:02:19Z</time></trkpt><trkpt lat="45.78017278909656" lon="8.69769237867763"><ele>250.4</ele><time>2026-04-10T14:02:20Z</time></trkpt><trkpt lat="45.7801347890249" lon="8.697842243631902"><ele>250.8</ele><time>2026-04-10T14:02:21Z</time></trkpt><trkpt lat="45.78011141774483" lon="8.697991426472095"><ele>251.2</ele><time>2026-04-10T14:02:22Z</time></trkpt><trkpt lat="45.78009074586975" lon="8.698114308717981"><ele>251.6</ele><time>2026-04-10T14:02:23Z</time></trkpt><trkpt lat="45.780062813806104" lon="8.698223926080743"><ele>252.0</ele><time>2026-04-10T14:02:24Z</time></trkpt><trkpt lat="45.78002522444885" lon="8.698335284479061"><ele>252.0</ele><time>2026-04-10T14:02:26Z</time></trkpt><trkpt lat="45.77996894859569" lon="8.698462800392637"><ele>252.0</ele><time>2026-04-10T14:02:30Z</time></trkpt><trkpt lat="45.779914108127" lon="8.698518980496868"><ele>252.0</ele><time>2026-04-10T14:02:31Z</time></trkpt><trkpt lat="45.77993097631361" lon="8.698691773503068"><ele>252.0</ele><time>2026-04-10T14:02:33Z</time></trkpt><trkpt lat="45.77995725814327" lon="8.698795902937785"><ele>252.0</ele><time>2026-04-10T14:02:34Z</time></trkpt><trkpt lat="45.7799641489662" lon="8.698908716772685"><ele>252.5</ele><time>2026-04-10T14:02:35Z</time></trkpt><trkpt lat="45.77997629106434" lon="8.699023748495938"><ele>253.0</ele><time>2026-04-10T14:02:36Z</time></trkpt><trkpt lat="45.77993822223156" lon="8.699140452767207"><ele>253.5</ele><time>2026-04-10T14:02:37Z</time></trkpt><trkpt lat="45.77991853090045" lon="8.699244741641312"><ele>254.0</ele><time>2026-04-10T14:02:38Z</time></trkpt><trkpt lat="45.779904730291626" lon="8.699376554843647"><ele>254.5</ele><time>2026-04-10T14:02:39Z</time></trkpt><trkpt lat="45.779887706514984" lon="8.69951816122406"><ele>255.0</ele><time>2026-04-10T14:02:40Z</time></trkpt><trkpt lat="45.77987303873624" lon="8.699649028905867"><ele>255.33333333333334</ele><time>2026-04-10T14:02:41Z</time></trkpt><trkpt lat="45.7798385564065" lon="8.699775493030327"><ele>255.66666666666669</ele><time>2026-04-10T14:02:42Z</time></trkpt><trkpt lat="45.77983946480412" lon="8.699888230671888"><ele>256.0</ele><time>2026-04-10T14:02:43Z</time></trkpt><trkpt lat="45.779810545690744" lon="8.700007477429537"><ele>256.33333333333337</ele><time>2026-04-10T14:02:44Z</time></trkpt><trkpt lat="45.77980771445396" lon="8.70010812106189"><ele>256.6666666666667</ele><time>2026-04-10T14:02:45Z</time></trkpt><trkpt lat="45.77978559547295" lon="8.700251405819516"><ele>257.0</ele><time>2026-04-10T14:02:47Z</time></trkpt><trkpt lat="45.77976948335318" lon="8.700376264336704"><ele>257.33333333333337</ele><time>2026-04-10T14:02:49Z</time></trkpt><trkpt lat="45.77974484164412" lon="8.700478979451882"><ele>257.6666666666667</ele><time>2026-04-10T14:02:50Z</time></trkpt><trkpt lat="45.77972616855862" lon="8.700594649325614"><ele>258.0</ele><time>2026-04-10T14:02:51Z</time></trkpt><trkpt lat="45.77971396504686" lon="8.700709785313839"><ele>258.3333333333333</ele><time>2026-04-10T14:02:52Z</time></trkpt><trkpt lat="45.77969582584057" lon="8.70082442351979"><ele>258.66666666666663</ele><time>2026-04-10T14:02:53Z</time></trkpt><trkpt lat="45.77967645508811" lon="8.70098270759454"><ele>259.0</ele><time>2026-04-10T14:02:55Z</time></trkpt><trkpt lat="45.779652908881644" lon="8.701094827173842"><ele>259.5</ele><time>2026-04-10T14:02:57Z</time></trkpt><trkpt lat="45.77963619800135" lon="8.701211769818007"><ele>260.0</ele><time>2026-04-10T14:02:59Z</time></trkpt><trkpt lat="45.77962146720453" lon="8.701332118814358"><ele>260.5</ele><time>2026-04-10T14:03:01Z</time></trkpt><trkpt lat="45.77958859391639" lon="8.701506861996016"><ele>261.0</ele><time>2026-04-10T14:03:03Z</time></trkpt><trkpt lat="45.77958470025036" lon="8.7016114346178"><ele>261.5</ele><time>2026-04-10T14:03:04Z</time></trkpt><trkpt lat="45.77956258586281" lon="8.70172396337417"><ele>262.0</ele><time>2026-04-10T14:03:05Z</time></trkpt><trkpt lat="45.779544355811616" lon="8.701856737522881"><ele>262.5</ele><time>2026-04-10T14:03:06Z</time></trkpt><trkpt lat="45.779527886833186" lon="8.702003459332355"><ele>263.0</ele><time>2026-04-10T14:03:07Z</time></trkpt><trkpt lat="45.77949862191348" lon="8.702134832110325"><ele>263.5</ele><time>2026-04-10T14:03:08Z</time></trkpt><trkpt lat="45.77948257851782" lon="8.702242657566977"><ele>264.0</ele><time>2026-04-10T14:03:09Z</time></trkpt><trkpt lat="45.779471219847984" lon="8.702331520316264"><ele>264.5</ele><time>2026-04-10T14:03:10Z</time></trkpt><trkpt lat="45.77947136624776" lon="8.702439100534162"><ele>265.0</ele><time>2026-04-10T14:03:12Z</time></trkpt><trkpt lat="45.77944788887798" lon="8.702549011863507"><ele>265.0</ele><time>2026-04-10T14:03:29Z</time></trkpt><trkpt lat="45.77944214385968" lon="8.70264847449762"><ele>265.0</ele><time>2026-04-10T14:03:33Z</time></trkpt><trkpt lat="45.77934393154398" lon="8.702689491089696"><ele>265.0</ele><time>2026-04-10T14:03:35Z</time></trkpt><trkpt lat="45.77927281973273" lon="8.702703168708656"><ele>265.0</ele><time>2026-04-10T14:03:37Z</time></trkpt><trkpt lat="45.77921064882745" lon="8.70273786268397"><ele>265.0</ele><time>2026-04-10T14:03:40Z</time></trkpt><trkpt lat="45.779140362657465" lon="8.702768858616086"><ele>265.0</ele><time>2026-04-10T14:03:43Z</time></trkpt><trkpt lat="45.77906187696608" lon="8.702823026690266"><ele>265.66666666666663</ele><time>2026-04-10T14:03:45Z</time></trkpt><trkpt lat="45.778986130173735" lon="8.702846281145606"><ele>266.3333333333333</ele><time>2026-04-10T14:03:48Z</time></trkpt><trkpt lat="45.77888240090448" lon="8.702882618857979"><ele>267.0</ele><time>2026-04-10T14:03:51Z</time></trkpt><trkpt lat="45.77881457832949" lon="8.702912528431776"><ele>267.6666666666667</ele><time>2026-04-10T14:03:57Z</time></trkpt><trkpt lat="45.77875128864998" lon="8.702940438894611"><ele>268.33333333333337</ele><time>2026-04-10T14:03:58Z</time></trkpt><trkpt lat="45.77868720243482" lon="8.702968700708054"><ele>269.0</ele><time>2026-04-10T14:03:59Z</time></trkpt><trkpt lat="45.778606540515185" lon="8.703004272331446"><ele>269.0</ele><time>2026-04-10T14:04:00Z</time></trkpt><trkpt lat="45.77852468508775" lon="8.703040370833788"><ele>269.0</ele><time>2026-04-10T14:04:01Z</time></trkpt><trkpt lat="45.77845121882297" lon="8.703073940396653"><ele>269.0</ele><time>2026-04-10T14:04:02Z</time></trkpt><trkpt lat="45.77838658558265" lon="8.703120787518268"><ele>269.0</ele><time>2026-04-10T14:04:03Z</time></trkpt><trkpt lat="45.77830814496018" lon="8.703151020063538"><ele>269.0</ele><time>2026-04-10T14:04:04Z</time></trkpt><trkpt lat="45.77822038598615" lon="8.703193178695216"><ele>269.0</ele><time>2026-04-10T14:04:05Z</time></trkpt><trkpt lat="45.778126285992414" lon="8.703228187485916"><ele>269.0</ele><time>2026-04-10T14:04:06Z</time></trkpt><trkpt lat="45.77803098616256" lon="8.703269856479615"><ele>269.0</ele><time>2026-04-10T14:04:07Z</time></trkpt><trkpt lat="45.7779367169525" lon="8.703306962297344"><ele>269.0</ele><time>2026-04-10T14:04:08Z</time></trkpt><trkpt lat="45.7778410764756" lon="8.703350848938419"><ele>269.0</ele><time>2026-04-10T14:04:09Z</time></trkpt><trkpt lat="45.77774182143766" lon="8.703379830962135"><ele>269.0</ele><time>2026-04-10T14:04:10Z</time></trkpt><trkpt lat="45.777646712288174" lon="8.703419305216558"><ele>269.1666666666667</ele><time>2026-04-10T14:04:11Z</time></trkpt><trkpt lat="45.77754897045759" lon="8.70346594163728"><ele>269.33333333333337</ele><time>2026-04-10T14:04:12Z</time></trkpt><trkpt lat="45.777446745885754" lon="8.703522815686682"><ele>269.5</ele><time>2026-04-10T14:04:13Z</time></trkpt><trkpt lat="45.77736830891146" lon="8.703561897783793"><ele>269.6666666666667</ele><time>2026-04-10T14:04:14Z</time></trkpt><trkpt lat="45.777298537951864" lon="8.703591359387172"><ele>269.8333333333333</ele><time>2026-04-10T14:04:15Z</time></trkpt><trkpt lat="45.77723106677229" lon="8.703619239803642"><ele>270.0</ele><time>2026-04-10T14:04:16Z</time></trkpt><trkpt lat="45.77715470818446" lon="8.703652636999701"><ele>270.0</ele><time>2026-04-10T14:04:17Z</time></trkpt><trkpt lat="45.777055985692925" lon="8.70370037497013"><ele>270.0</ele><time>2026-04-10T14:04:18Z</time></trkpt><trkpt lat="45.77696539525867" lon="8.703735281150827"><ele>270.0</ele><time>2026-04-10T14:04:19Z</time></trkpt><trkpt lat="45.77689726550821" lon="8.703763921955249"><ele>270.0</ele><time>2026-04-10T14:04:20Z</time></trkpt><trkpt lat="45.77683288295523" lon="8.70379407629438"><ele>270.0</ele><time>2026-04-10T14:04:21Z</time></trkpt><trkpt lat="45.77676045904825" lon="8.703827804656795"><ele>270.0</ele><time>2026-04-10T14:04:22Z</time></trkpt><trkpt lat="45.77668476692636" lon="8.703864784346965"><ele>270.2857142857143</ele><time>2026-04-10T14:04:23Z</time></trkpt><trkpt lat="45.7766236427929" lon="8.703890730170098"><ele>270.57142857142856</ele><time>2026-04-10T14:04:24Z</time></trkpt><trkpt lat="45.77656378361064" lon="8.703921807946811"><ele>270.85714285714283</ele><time>2026-04-10T14:04:25Z</time></trkpt><trkpt lat="45.776491898475165" lon="8.703953163941796"><ele>271.1428571428571</ele><time>2026-04-10T14:04:26Z</time></trkpt><trkpt lat="45.776415793826494" lon="8.703981370269007"><ele>271.42857142857144</ele><time>2026-04-10T14:04:27Z</time></trkpt><trkpt lat="45.77634650796572" lon="8.70400953772603"><ele>271.71428571428567</ele><time>2026-04-10T14:04:28Z</time></trkpt><trkpt lat="45.776266693977796" lon="8.704031328780534"><ele>272.0</ele><time>2026-04-10T14:04:29Z</time></trkpt><trkpt lat="45.77618365463064" lon="8.70406396782187"><ele>272.0</ele><time>2026-04-10T14:04:30Z</time></trkpt><trkpt lat="45.77609970394958" lon="8.704089649779133"><ele>272.0</ele><time>2026-04-10T14:04:31Z</time></trkpt><trkpt lat="45.77601377292313" lon="8.704092604432498"><ele>272.0</ele><time>2026-04-10T14:04:32Z</time></trkpt><trkpt lat="45.775928155168394" lon="8.70407429598265"><ele>272.0</ele><time>2026-04-10T14:04:33Z</time></trkpt><trkpt lat="45.77584348550814" lon="8.704044581351713"><ele>272.0</ele><time>2026-04-10T14:04:34Z</time></trkpt><trkpt lat="45.775766586575564" lon="8.704030384270183"><ele>272.0</ele><time>2026-04-10T14:04:35Z</time></trkpt><trkpt lat="45.77569942070314" lon="8.704021237300939"><ele>272.33333333333337</ele><time>2026-04-10T14:04:36Z</time></trkpt><trkpt lat="45.77558456690465" lon="8.704005963155154"><ele>272.6666666666667</ele><time>2026-04-10T14:04:38Z</time></trkpt><trkpt lat="45.77550816538466" lon="8.703991770541432"><ele>273.0</ele><time>2026-04-10T14:04:39Z</time></trkpt><trkpt lat="45.775427596764416" lon="8.703963243839082"><ele>273.3333333333333</ele><time>2026-04-10T14:04:40Z</time></trkpt><trkpt lat="45.77536182601445" lon="8.703959935828605"><ele>273.66666666666663</ele><time>2026-04-10T14:04:41Z</time></trkpt><trkpt lat="45.77526803089509" lon="8.70394143663102"><ele>274.0</ele><time>2026-04-10T14:04:43Z</time></trkpt><trkpt lat="45.77520299876354" lon="8.703920976818782"><ele>274.3333333333333</ele><time>2026-04-10T14:04:46Z</time></trkpt><trkpt lat="45.77508316509491" lon="8.703905909849848"><ele>274.66666666666663</ele><time>2026-04-10T14:04:48Z</time></trkpt><trkpt lat="45.775016672984165" lon="8.70389876008704"><ele>275.0</ele><time>2026-04-10T14:04:49Z</time></trkpt><trkpt lat="45.77494327606987" lon="8.703876223011015"><ele>275.3333333333333</ele><time>2026-04-10T14:04:50Z</time></trkpt><trkpt lat="45.77486458313364" lon="8.703859849368923"><ele>275.6666666666667</ele><time>2026-04-10T14:04:51Z</time></trkpt><trkpt lat="45.774795368752265" lon="8.703846064353863"><ele>276.0</ele><time>2026-04-10T14:04:52Z</time></trkpt><trkpt lat="45.77471874124982" lon="8.703839532284231"><ele>276.0</ele><time>2026-04-10T14:04:53Z</time></trkpt><trkpt lat="45.774646583016406" lon="8.703802698686653"><ele>276.0</ele><time>2026-04-10T14:04:54Z</time></trkpt><trkpt lat="45.774578669820045" lon="8.703789315373651"><ele>276.0</ele><time>2026-04-10T14:04:55Z</time></trkpt><trkpt lat="45.77451192460328" lon="8.703776161919762"><ele>276.0</ele><time>2026-04-10T14:04:56Z</time></trkpt><trkpt lat="45.77443430778281" lon="8.703784121576284"><ele>276.0</ele><time>2026-04-10T14:04:57Z</time></trkpt><trkpt lat="45.77435470908369" lon="8.703745741344356"><ele>276.0</ele><time>2026-04-10T14:04:58Z</time></trkpt><trkpt lat="45.77427030664549" lon="8.703729409337269"><ele>276.2</ele><time>2026-04-10T14:04:59Z</time></trkpt><trkpt lat="45.774187290264265" lon="8.703713343217743"><ele>276.40000000000003</ele><time>2026-04-10T14:05:00Z</time></trkpt><trkpt lat="45.7740886126657" lon="8.703718248593937"><ele>276.6</ele><time>2026-04-10T14:05:01Z</time></trkpt><trkpt lat="45.77398622389318" lon="8.703674789124278"><ele>276.8</ele><time>2026-04-10T14:05:02Z</time></trkpt><trkpt lat="45.77391098820901" lon="8.703659590855429"><ele>277.0</ele><time>2026-04-10T14:05:03Z</time></trkpt><trkpt lat="45.77381368597458" lon="8.703640896127855"><ele>277.0</ele><time>2026-04-10T14:05:04Z</time></trkpt><trkpt lat="45.77370995498429" lon="8.703621237185482"><ele>277.0</ele><time>2026-04-10T14:05:05Z</time></trkpt><trkpt lat="45.77364278604409" lon="8.703608624719978"><ele>277.0</ele><time>2026-04-10T14:05:06Z</time></trkpt><trkpt lat="45.77354148680877" lon="8.703592955200728"><ele>277.0</ele><time>2026-04-10T14:05:08Z</time></trkpt><trkpt lat="45.7734608384098" lon="8.703502365933696"><ele>277.0</ele><time>2026-04-10T14:05:10Z</time></trkpt><trkpt lat="45.77339618069642" lon="8.703279347626012"><ele>277.0</ele><time>2026-04-10T14:05:13Z</time></trkpt><trkpt lat="45.77337226353268" lon="8.703183383889142"><ele>277.0</ele><time>2026-04-10T14:05:14Z</time></trkpt><trkpt lat="45.77336822645098" lon="8.703057387019337"><ele>277.0</ele><time>2026-04-10T14:05:15Z</time></trkpt><trkpt lat="45.77334197376314" lon="8.702913133100852"><ele>277.0</ele><time>2026-04-10T14:05:16Z</time></trkpt><trkpt lat="45.77327780458783" lon="8.702808230455888"><ele>277.0</ele><time>2026-04-10T14:05:17Z</time></trkpt><trkpt lat="45.773186070126776" lon="8.702770278727574"><ele>277.0</ele><time>2026-04-10T14:05:18Z</time></trkpt><trkpt lat="45.77305874532605" lon="8.702761225569972"><ele>277.0</ele><time>2026-04-10T14:05:19Z</time></trkpt><trkpt lat="45.772926554787915" lon="8.702758787812726"><ele>277.0</ele><time>2026-04-10T14:05:20Z</time></trkpt><trkpt lat="45.772809900259354" lon="8.702736515264638"><ele>277.0</ele><time>2026-04-10T14:05:21Z</time></trkpt><trkpt lat="45.77270415558311" lon="8.702714254751042"><ele>275.6</ele><time>2026-04-10T14:05:22Z</time></trkpt><trkpt lat="45.77259829745148" lon="8.702700523189193"><ele>274.2</ele><time>2026-04-10T14:05:23Z</time></trkpt><trkpt lat="45.77249036705008" lon="8.702686254494258"><ele>272.8</ele><time>2026-04-10T14:05:24Z</time></trkpt><trkpt lat="45.77239967168368" lon="8.702667068312712"><ele>271.4</ele><time>2026-04-10T14:05:25Z</time></trkpt><trkpt lat="45.77230928963833" lon="8.7026446668953"><ele>270.0</ele><time>2026-04-10T14:05:26Z</time></trkpt><trkpt lat="45.77223254320332" lon="8.7026169044736"><ele>270.0</ele><time>2026-04-10T14:05:27Z</time></trkpt><trkpt lat="45.77215113079013" lon="8.702597280941879"><ele>270.0</ele><time>2026-04-10T14:05:28Z</time></trkpt><trkpt lat="45.77206956228594" lon="8.702592860054695"><ele>270.0</ele><time>2026-04-10T14:05:29Z</time></trkpt><trkpt lat="45.77197687363511" lon="8.702595413920452"><ele>270.0</ele><time>2026-04-10T14:05:30Z</time></trkpt><trkpt lat="45.77187922163415" lon="8.702636960211134"><ele>270.0</ele><time>2026-04-10T14:05:31Z</time></trkpt><trkpt lat="45.771774571190406" lon="8.702716823790233"><ele>269.75</ele><time>2026-04-10T14:05:32Z</time></trkpt><trkpt lat="45.77166435409962" lon="8.702799574318817"><ele>269.5</ele><time>2026-04-10T14:05:33Z</time></trkpt><trkpt lat="45.771539370604515" lon="8.702857032918176"><ele>269.25</ele><time>2026-04-10T14:05:34Z</time></trkpt><trkpt lat="45.77142063193075" lon="8.702947675931489"><ele>269.0</ele><time>2026-04-10T14:05:35Z</time></trkpt><trkpt lat="45.77129840667033" lon="8.703033563297293"><ele>269.0</ele><time>2026-04-10T14:05:36Z</time></trkpt><trkpt lat="45.77117846027524" lon="8.703120745182728"><ele>269.0</ele><time>2026-04-10T14:05:37Z</time></trkpt><trkpt lat="45.771069145411786" lon="8.703216487898855"><ele>269.0</ele><time>2026-04-10T14:05:38Z</time></trkpt><trkpt lat="45.770961764903696" lon="8.703318070861874"><ele>269.0</ele><time>2026-04-10T14:05:39Z</time></trkpt><trkpt lat="45.77086287681546" lon="8.703436872226582"><ele>267.0</ele><time>2026-04-10T14:05:40Z</time></trkpt><trkpt lat="45.77076289551192" lon="8.70354725897464"><ele>265.0</ele><time>2026-04-10T14:05:41Z</time></trkpt><trkpt lat="45.770668687933394" lon="8.703642573239852"><ele>263.0</ele><time>2026-04-10T14:05:42Z</time></trkpt><trkpt lat="45.77057719806664" lon="8.703736204971259"><ele>261.0</ele><time>2026-04-10T14:05:43Z</time></trkpt><trkpt lat="45.770485214598615" lon="8.703823605703521"><ele>260.2</ele><time>2026-04-10T14:05:44Z</time></trkpt><trkpt lat="45.77039659057611" lon="8.703907545254708"><ele>259.40000000000003</ele><time>2026-04-10T14:05:45Z</time></trkpt><trkpt lat="45.77030606734927" lon="8.703998071078493"><ele>258.6</ele><time>2026-04-10T14:05:46Z</time></trkpt><trkpt lat="45.77021459084657" lon="8.704082081795393"><ele>257.8</ele><time>2026-04-10T14:05:47Z</time></trkpt><trkpt lat="45.77011555632328" lon="8.704180304829977"><ele>257.0</ele><time>2026-04-10T14:05:48Z</time></trkpt><trkpt lat="45.770004500201246" lon="8.704266458975873"><ele>256.75</ele><time>2026-04-10T14:05:49Z</time></trkpt><trkpt lat="45.76989383428331" lon="8.704387278926347"><ele>256.5</ele><time>2026-04-10T14:05:50Z</time></trkpt><trkpt lat="45.76977968399262" lon="8.70448602846223"><ele>256.25</ele><time>2026-04-10T14:05:51Z</time></trkpt><trkpt lat="45.76967482936061" lon="8.704583733193136"><ele>256.0</ele><time>2026-04-10T14:05:52Z</time></trkpt><trkpt lat="45.769575720246515" lon="8.704679698299127"><ele>255.5</ele><time>2026-04-10T14:05:53Z</time></trkpt><trkpt lat="45.76947592089774" lon="8.704775078297468"><ele>255.0</ele><time>2026-04-10T14:05:54Z</time></trkpt><trkpt lat="45.769368063162084" lon="8.704870800534204"><ele>254.5</ele><time>2026-04-10T14:05:55Z</time></trkpt><trkpt lat="45.76926537428684" lon="8.70496185489275"><ele>254.0</ele><time>2026-04-10T14:05:56Z</time></trkpt><trkpt lat="45.76916795800131" lon="8.705051577008158"><ele>253.50000000000003</ele><time>2026-04-10T14:05:57Z</time></trkpt><trkpt lat="45.769083435152766" lon="8.705138137634204"><ele>253.0</ele><time>2026-04-10T14:05:58Z</time></trkpt><trkpt lat="45.76900644978459" lon="8.705189502950793"><ele>252.5</ele><time>2026-04-10T14:05:59Z</time></trkpt><trkpt lat="45.76894532555732" lon="8.7052368275829"><ele>252.0</ele><time>2026-04-10T14:06:00Z</time></trkpt><trkpt lat="45.76889300800471" lon="8.70528980267224"><ele>251.50000000000003</ele><time>2026-04-10T14:06:01Z</time></trkpt><trkpt lat="45.76883193925604" lon="8.70534213808212"><ele>251.0</ele><time>2026-04-10T14:06:02Z</time></trkpt><trkpt lat="45.768769516625184" lon="8.705396762470022"><ele>251.0</ele><time>2026-04-10T14:06:03Z</time></trkpt><trkpt lat="45.76866664894126" lon="8.705467135631634"><ele>251.00000000000003</ele><time>2026-04-10T14:06:05Z</time></trkpt><trkpt lat="45.76858957153787" lon="8.70552572704686"><ele>251.00000000000003</ele><time>2026-04-10T14:06:06Z</time></trkpt><trkpt lat="45.76850579673921" lon="8.705606849787475"><ele>251.0</ele><time>2026-04-10T14:06:07Z</time></trkpt><trkpt lat="45.76842418843134" lon="8.705698928170344"><ele>251.0</ele><time>2026-04-10T14:06:08Z</time></trkpt><trkpt lat="45.768324855589306" lon="8.705775654291822"><ele>251.0</ele><time>2026-04-10T14:06:09Z</time></trkpt><trkpt lat="45.7682046019969" lon="8.705838403386762"><ele>251.0</ele><time>2026-04-10T14:06:10Z</time></trkpt><trkpt lat="45.76809688876325" lon="8.70590813453607"><ele>251.0</ele><time>2026-04-10T14:06:11Z</time></trkpt><trkpt lat="45.76799023380068" lon="8.705991343476745"><ele>251.0</ele><time>2026-04-10T14:06:12Z</time></trkpt><trkpt lat="45.76788044469829" lon="8.70606653074626"><ele>251.0</ele><time>2026-04-10T14:06:13Z</time></trkpt><trkpt lat="45.76778413806558" lon="8.706124880805604"><ele>251.00000000000003</ele><time>2026-04-10T14:06:14Z</time></trkpt><trkpt lat="45.76770249292335" lon="8.70618154234571"><ele>251.00000000000003</ele><time>2026-04-10T14:06:15Z</time></trkpt><trkpt lat="45.76762029005745" lon="8.706247032425612"><ele>251.0</ele><time>2026-04-10T14:06:16Z</time></trkpt><trkpt lat="45.76751955923301" lon="8.70633787553237"><ele>251.0</ele><time>2026-04-10T14:06:17Z</time></trkpt><trkpt lat="45.7674513958344" lon="8.706377977119573"><ele>251.83333333333334</ele><time>2026-04-10T14:06:18Z</time></trkpt><trkpt lat="45.76738834257989" lon="8.706441091127342"><ele>252.66666666666669</ele><time>2026-04-10T14:06:19Z</time></trkpt><trkpt lat="45.76733947062054" lon="8.706503583844274"><ele>253.5</ele><time>2026-04-10T14:06:20Z</time></trkpt><trkpt lat="45.767286026320534" lon="8.706562946510449"><ele>254.33333333333331</ele><time>2026-04-10T14:06:21Z</time></trkpt><trkpt lat="45.767216981992064" lon="8.706622593080459"><ele>255.16666666666666</ele><time>2026-04-10T14:06:23Z</time></trkpt><trkpt lat="45.76712031164292" lon="8.706705012634417"><ele>256.0</ele><time>2026-04-10T14:18:10Z</time></trkpt><trkpt lat="45.76703304627341" lon="8.706807363731393"><ele>255.99999999999997</ele><time>2026-04-10T14:18:12Z</time></trkpt><trkpt lat="45.76698607619313" lon="8.706871148172496"><ele>256.0</ele><time>2026-04-10T14:18:13Z</time></trkpt><trkpt lat="45.76693458266623" lon="8.706936086497855"><ele>256.0</ele><time>2026-04-10T14:18:14Z</time></trkpt><trkpt lat="45.766884600173505" lon="8.707000077776769"><ele>256.0</ele><time>2026-04-10T14:18:15Z</time></trkpt><trkpt lat="45.76680593458438" lon="8.707101927951356"><ele>255.99999999999997</ele><time>2026-04-10T14:18:17Z</time></trkpt><trkpt lat="45.76671181974964" lon="8.707220760116227"><ele>256.0</ele><time>2026-04-10T14:18:19Z</time></trkpt><trkpt lat="45.766649043552604" lon="8.707296441661828"><ele>255.99999999999997</ele><time>2026-04-10T14:18:20Z</time></trkpt><trkpt lat="45.76658664089545" lon="8.707371024566443"><ele>256.0</ele><time>2026-04-10T14:18:21Z</time></trkpt><trkpt lat="45.76652563128741" lon="8.707444957331374"><ele>256.0</ele><time>2026-04-10T14:18:22Z</time></trkpt><trkpt lat="45.76645499985385" lon="8.707530684770541"><ele>256.0</ele><time>2026-04-10T14:18:23Z</time></trkpt><trkpt lat="45.76639995177402" lon="8.707598349757694"><ele>255.99999999999997</ele><time>2026-04-10T14:18:24Z</time></trkpt><trkpt lat="45.766345772741815" lon="8.707691743910486"><ele>256.0</ele><time>2026-04-10T14:18:25Z</time></trkpt><trkpt lat="45.76628391167559" lon="8.707764911507034"><ele>256.2</ele><time>2026-04-10T14:18:26Z</time></trkpt><trkpt lat="45.76622008627182" lon="8.707848625212154"><ele>256.40000000000003</ele><time>2026-04-10T14:18:27Z</time></trkpt><trkpt lat="45.766156444471626" lon="8.707930467248813"><ele>256.6</ele><time>2026-04-10T14:18:28Z</time></trkpt><trkpt lat="45.766098549629156" lon="8.707998983779024"><ele>256.8</ele><time>2026-04-10T14:18:29Z</time></trkpt><trkpt lat="45.766004258694174" lon="8.708111782136942"><ele>257.0</ele><time>2026-04-10T14:18:31Z</time></trkpt><trkpt lat="45.765899930636074" lon="8.708221316130599"><ele>257.0</ele><time>2026-04-10T14:18:33Z</time></trkpt><trkpt lat="45.76583095471555" lon="8.708273907962482"><ele>257.0</ele><time>2026-04-10T14:18:34Z</time></trkpt><trkpt lat="45.76575525670551" lon="8.708320768771603"><ele>257.0</ele><time>2026-04-10T14:18:35Z</time></trkpt><trkpt lat="45.76568646118406" lon="8.708362702796277"><ele>257.0</ele><time>2026-04-10T14:18:36Z</time></trkpt><trkpt lat="45.765616034876246" lon="8.708403004297624"><ele>257.0</ele><time>2026-04-10T14:18:37Z</time></trkpt><trkpt lat="45.765559284234286" lon="8.708449254690711"><ele>257.0</ele><time>2026-04-10T14:18:38Z</time></trkpt><trkpt lat="45.7654855424336" lon="8.70849610304646"><ele>257.0</ele><time>2026-04-10T14:18:39Z</time></trkpt><trkpt lat="45.76541052617382" lon="8.708540560454257"><ele>257.0</ele><time>2026-04-10T14:18:40Z</time></trkpt><trkpt lat="45.7653364555993" lon="8.708586290376392"><ele>257.0</ele><time>2026-04-10T14:18:41Z</time></trkpt><trkpt lat="45.76526840259537" lon="8.70862461895242"><ele>257.0</ele><time>2026-04-10T14:18:42Z</time></trkpt><trkpt lat="45.76516438286347" lon="8.708681684170656"><ele>257.0</ele><time>2026-04-10T14:18:44Z</time></trkpt><trkpt lat="45.76507311028939" lon="8.708735242968498"><ele>257.0</ele><time>2026-04-10T14:18:58Z</time></trkpt><trkpt lat="45.76496758001276" lon="8.708799689052565"><ele>257.0</ele><time>2026-04-10T14:19:00Z</time></trkpt><trkpt lat="45.76486663670092" lon="8.708863294910202"><ele>257.0</ele><time>2026-04-10T14:19:02Z</time></trkpt><trkpt lat="45.764786051259975" lon="8.708914072957134"><ele>257.0</ele><time>2026-04-10T14:19:03Z</time></trkpt><trkpt lat="45.76467314606908" lon="8.708985216200183"><ele>257.0</ele><time>2026-04-10T14:19:04Z</time></trkpt><trkpt lat="45.76460815126004" lon="8.70902617022593"><ele>257.0</ele><time>2026-04-10T14:19:05Z</time></trkpt><trkpt lat="45.76454049029183" lon="8.709068804547332"><ele>257.0</ele><time>2026-04-10T14:19:06Z</time></trkpt><trkpt lat="45.76442499916379" lon="8.709141577134828"><ele>257.0</ele><time>2026-04-10T14:19:08Z</time></trkpt><trkpt lat="45.76434881263928" lon="8.709187119590496"><ele>257.0</ele><time>2026-04-10T14:19:10Z</time></trkpt><trkpt lat="45.76447861095834" lon="8.709627847068578"><ele>255.50000000000003</ele><time>2026-04-10T14:19:13Z</time></trkpt><trkpt lat="45.76452424833414" lon="8.709712548118585"><ele>254.0</ele><time>2026-04-10T14:19:14Z</time></trkpt><trkpt lat="45.764586570794854" lon="8.709823656044007"><ele>252.5</ele><time>2026-04-10T14:19:15Z</time></trkpt><trkpt lat="45.764646921378976" lon="8.709944131985687"><ele>251.0</ele><time>2026-04-10T14:19:16Z</time></trkpt><trkpt lat="45.76467491421121" lon="8.710042158628609"><ele>249.50000000000003</ele><time>2026-04-10T14:19:17Z</time></trkpt><trkpt lat="45.76470553258124" lon="8.710136636687878"><ele>248.0</ele><time>2026-04-10T14:19:19Z</time></trkpt><trkpt lat="45.76471723215404" lon="8.710253546112767"><ele>247.66666666666669</ele><time>2026-04-10T14:19:21Z</time></trkpt><trkpt lat="45.76474573756321" lon="8.710349409704994"><ele>247.33333333333334</ele><time>2026-04-10T14:19:22Z</time></trkpt><trkpt lat="45.76477021475129" lon="8.710436232842357"><ele>247.0</ele><time>2026-04-10T14:19:23Z</time></trkpt><trkpt lat="45.76481695823122" lon="8.710542074232823"><ele>246.66666666666669</ele><time>2026-04-10T14:19:25Z</time></trkpt><trkpt lat="45.76486556946054" lon="8.710672685307493"><ele>246.33333333333334</ele><time>2026-04-10T14:19:27Z</time></trkpt><trkpt lat="45.76491967034943" lon="8.710800682356137"><ele>246.0</ele><time>2026-04-10T14:19:29Z</time></trkpt><trkpt lat="45.764942029350806" lon="8.71090060910458"><ele>246.0</ele><time>2026-04-10T14:19:30Z</time></trkpt><trkpt lat="45.76497574586797" lon="8.71098876247292"><ele>246.0</ele><time>2026-04-10T14:19:31Z</time></trkpt><trkpt lat="45.76501681146652" lon="8.7111234533674"><ele>246.0</ele><time>2026-04-10T14:19:33Z</time></trkpt><trkpt lat="45.76506040009646" lon="8.711266550244998"><ele>246.0</ele><time>2026-04-10T14:19:35Z</time></trkpt><trkpt lat="45.76509860823903" lon="8.711353174092263"><ele>246.0</ele><time>2026-04-10T14:19:36Z</time></trkpt><trkpt lat="45.76513025789478" lon="8.711446973655756"><ele>246.0</ele><time>2026-04-10T14:19:37Z</time></trkpt><trkpt lat="45.765176896974154" lon="8.71158772802029"><ele>245.4</ele><time>2026-04-10T14:19:39Z</time></trkpt><trkpt lat="45.76521291765714" lon="8.711725495550628"><ele>244.8</ele><time>2026-04-10T14:19:41Z</time></trkpt><trkpt lat="45.76524706460371" lon="8.711883264662593"><ele>244.20000000000002</ele><time>2026-04-10T14:19:43Z</time></trkpt><trkpt lat="45.76527694431151" lon="8.71198828445798"><ele>243.60000000000002</ele><time>2026-04-10T14:19:45Z</time></trkpt><trkpt lat="45.76531786530313" lon="8.71212046695517"><ele>243.0</ele><time>2026-04-10T14:19:47Z</time></trkpt><trkpt lat="45.76535239931835" lon="8.712218803562571"><ele>243.0</ele><time>2026-04-10T14:19:49Z</time></trkpt><trkpt lat="45.76537811794746" lon="8.712346086564255"><ele>243.0</ele><time>2026-04-10T14:19:52Z</time></trkpt><trkpt lat="45.76533404362666" lon="8.712428470278972"><ele>243.0</ele><time>2026-04-10T14:19:55Z</time></trkpt><trkpt lat="45.76521213150199" lon="8.712440166203535"><ele>243.0</ele><time>2026-04-10T14:19:57Z</time></trkpt><trkpt lat="45.76513915541607" lon="8.712429358655255"><ele>243.0</ele><time>2026-04-10T14:19:59Z</time></trkpt><trkpt lat="45.76504510149081" lon="8.712444397833043"><ele>243.75</ele><time>2026-04-10T14:20:01Z</time></trkpt><trkpt lat="45.76498086998711" lon="8.712441881868171"><ele>244.5</ele><time>2026-04-10T14:20:02Z</time></trkpt><trkpt lat="45.76485600288083" lon="8.71244528001747"><ele>245.25</ele><time>2026-04-10T14:20:04Z</time></trkpt><trkpt lat="45.76474665115536" lon="8.712463522510705"><ele>246.0</ele><time>2026-04-10T14:20:06Z</time></trkpt><trkpt lat="45.76459380548798" lon="8.712474468172646"><ele>246.0</ele><time>2026-04-10T14:20:08Z</time></trkpt><trkpt lat="45.76452574262385" lon="8.71247195717166"><ele>246.00000000000003</ele><time>2026-04-10T14:20:09Z</time></trkpt><trkpt lat="45.764423072405826" lon="8.712469171710703"><ele>246.00000000000003</ele><time>2026-04-10T14:20:11Z</time></trkpt><trkpt lat="45.76435982144908" lon="8.71246841619262"><ele>246.0</ele><time>2026-04-10T14:20:12Z</time></trkpt><trkpt lat="45.76425442679807" lon="8.712490485955236"><ele>246.0</ele><time>2026-04-10T14:20:14Z</time></trkpt><trkpt lat="45.76414833984857" lon="8.712526478395777"><ele>246.33333333333334</ele><time>2026-04-10T14:20:16Z</time></trkpt><trkpt lat="45.76404007873111" lon="8.712534904566704"><ele>246.66666666666669</ele><time>2026-04-10T14:20:18Z</time></trkpt><trkpt lat="45.76397362580129" lon="8.712538521367446"><ele>247.0</ele><time>2026-04-10T14:20:20Z</time></trkpt><trkpt lat="45.763899471441796" lon="8.712531364993254"><ele>247.33333333333334</ele><time>2026-04-10T14:20:23Z</time></trkpt><trkpt lat="45.76381209653851" lon="8.712541822961535"><ele>247.66666666666669</ele><time>2026-04-10T14:20:26Z</time></trkpt><trkpt lat="45.76371031652837" lon="8.712562535455822"><ele>248.0</ele><time>2026-04-10T14:20:28Z</time></trkpt><trkpt lat="45.76361071950798" lon="8.712585747097144"><ele>248.0</ele><time>2026-04-10T14:20:30Z</time></trkpt><trkpt lat="45.76354312932779" lon="8.712593934618967"><ele>248.0</ele><time>2026-04-10T14:20:31Z</time></trkpt><trkpt lat="45.763468313519" lon="8.712615189190094"><ele>248.0</ele><time>2026-04-10T14:20:33Z</time></trkpt><trkpt lat="45.763338651916044" lon="8.712654550077335"><ele>248.0</ele><time>2026-04-10T14:20:35Z</time></trkpt><trkpt lat="45.76323335596029" lon="8.71269178268327"><ele>248.0</ele><time>2026-04-10T14:20:37Z</time></trkpt><trkpt lat="45.76313068852873" lon="8.712710901975003"><ele>247.83333333333334</ele><time>2026-04-10T14:20:39Z</time></trkpt><trkpt lat="45.763065670792805" lon="8.712716637638135"><ele>247.66666666666669</ele><time>2026-04-10T14:20:40Z</time></trkpt><trkpt lat="45.7630017056233" lon="8.712721168799243"><ele>247.5</ele><time>2026-04-10T14:20:41Z</time></trkpt><trkpt lat="45.76293856076433" lon="8.712730252092932"><ele>247.33333333333331</ele><time>2026-04-10T14:20:42Z</time></trkpt><trkpt lat="45.76285832536362" lon="8.712749004206719"><ele>247.16666666666666</ele><time>2026-04-10T14:20:44Z</time></trkpt><trkpt lat="45.7627626968434" lon="8.712765555539747"><ele>247.0</ele><time>2026-04-10T14:20:45.999Z</time></trkpt><trkpt lat="45.76264153582199" lon="8.712789822870404"><ele>247.66666666666666</ele><time>2026-04-10T14:20:47.999Z</time></trkpt><trkpt lat="45.76255142441319" lon="8.712820513528289"><ele>248.33333333333331</ele><time>2026-04-10T14:20:49.999Z</time></trkpt><trkpt lat="45.762475890116384" lon="8.712837244793587"><ele>249.0</ele><time>2026-04-10T14:20:51.999Z</time></trkpt><trkpt lat="45.762376514360035" lon="8.712876463818837"><ele>249.66666666666669</ele><time>2026-04-10T14:20:53.999Z</time></trkpt><trkpt lat="45.76231507376334" lon="8.71290219851604"><ele>250.33333333333334</ele><time>2026-04-10T14:20:54.999Z</time></trkpt><trkpt lat="45.76222335370738" lon="8.712921279708143"><ele>251.0</ele><time>2026-04-10T14:20:56.999Z</time></trkpt><trkpt lat="45.76215980891359" lon="8.712947397219642"><ele>251.00000000000003</ele><time>2026-04-10T14:20:57.999Z</time></trkpt><trkpt lat="45.76209854907382" lon="8.712981434361625"><ele>251.0</ele><time>2026-04-10T14:20:58.999Z</time></trkpt><trkpt lat="45.76202433658681" lon="8.713015309610256"><ele>251.0</ele><time>2026-04-10T14:21:01Z</time></trkpt><trkpt lat="45.76194484404674" lon="8.713058800567756"><ele>251.0</ele><time>2026-04-10T14:21:03Z</time></trkpt><trkpt lat="45.76183886321648" lon="8.713095148014006"><ele>251.00000000000003</ele><time>2026-04-10T14:21:05Z</time></trkpt><trkpt lat="45.76176173346976" lon="8.713130703986742"><ele>251.0</ele><time>2026-04-10T14:21:07Z</time></trkpt><trkpt lat="45.761652772588405" lon="8.713185192873658"><ele>250.66666666666669</ele><time>2026-04-10T14:21:09Z</time></trkpt><trkpt lat="45.76157293365949" lon="8.713219737921486"><ele>250.33333333333334</ele><time>2026-04-10T14:21:11Z</time></trkpt><trkpt lat="45.761506977739074" lon="8.713251971752081"><ele>250.0</ele><time>2026-04-10T14:21:13Z</time></trkpt><trkpt lat="45.76142850901614" lon="8.713283883996016"><ele>249.66666666666669</ele><time>2026-04-10T14:21:15Z</time></trkpt><trkpt lat="45.76134892447201" lon="8.71330821758658"><ele>249.33333333333334</ele><time>2026-04-10T14:21:17Z</time></trkpt><trkpt lat="45.76127179217946" lon="8.713341874055093"><ele>249.0</ele><time>2026-04-10T14:21:19Z</time></trkpt><trkpt lat="45.761201693731834" lon="8.713379223757078"><ele>249.0</ele><time>2026-04-10T14:21:21Z</time></trkpt><trkpt lat="45.761156847448426" lon="8.713495825286317"><ele>248.99999999999997</ele><time>2026-04-10T14:21:23Z</time></trkpt><trkpt lat="45.76114508304821" lon="8.713614380135935"><ele>248.99999999999997</ele><time>2026-04-10T14:21:25Z</time></trkpt><trkpt lat="45.76116303145889" lon="8.713713678555333"><ele>249.0</ele><time>2026-04-10T14:21:26Z</time></trkpt><trkpt lat="45.76120321796884" lon="8.713845317860656"><ele>249.0</ele><time>2026-04-10T14:21:27Z</time></trkpt><trkpt lat="45.76126037385162" lon="8.713978128807895"><ele>250.16666666666666</ele><time>2026-04-10T14:21:28Z</time></trkpt><trkpt lat="45.76131193594893" lon="8.714104951348737"><ele>251.33333333333331</ele><time>2026-04-10T14:21:29Z</time></trkpt><trkpt lat="45.76135033385132" lon="8.714212761976741"><ele>252.5</ele><time>2026-04-10T14:21:30Z</time></trkpt><trkpt lat="45.76138249494099" lon="8.714290586449408"><ele>253.66666666666666</ele><time>2026-04-10T14:21:31Z</time></trkpt><trkpt lat="45.76141575070871" lon="8.714377413504337"><ele>254.83333333333331</ele><time>2026-04-10T14:21:33Z</time></trkpt><trkpt lat="45.761459003416526" lon="8.714457659491007"><ele>256.0</ele><time>2026-04-10T14:21:35Z</time></trkpt><trkpt lat="45.76150498481644" lon="8.71454290164712"><ele>256.40000000000003</ele><time>2026-04-10T14:21:37Z</time></trkpt><trkpt lat="45.76156604641627" lon="8.714640761057307"><ele>256.8</ele><time>2026-04-10T14:21:39Z</time></trkpt><trkpt lat="45.76162863483792" lon="8.714765704634923"><ele>257.20000000000005</ele><time>2026-04-10T14:21:41Z</time></trkpt><trkpt lat="45.761699088824834" lon="8.714920002026032"><ele>257.6</ele><time>2026-04-10T14:21:43Z</time></trkpt><trkpt lat="45.76175794810587" lon="8.7150097297972"><ele>258.0</ele><time>2026-04-10T14:21:45Z</time></trkpt><trkpt lat="45.761804680593414" lon="8.715082094175726"><ele>258.0</ele><time>2026-04-10T14:21:47Z</time></trkpt><trkpt lat="45.76184931978867" lon="8.715199959125682"><ele>258.0</ele><time>2026-04-10T14:21:49Z</time></trkpt><trkpt lat="45.76191549254268" lon="8.715338539686373"><ele>258.0</ele><time>2026-04-10T14:21:51Z</time></trkpt><trkpt lat="45.76195020859437" lon="8.715418467129025"><ele>258.0</ele><time>2026-04-10T14:21:52Z</time></trkpt><trkpt lat="45.762013579059726" lon="8.71554835889919"><ele>258.0</ele><time>2026-04-10T14:21:54Z</time></trkpt><trkpt lat="45.76207259416971" lon="8.715668099287695"><ele>260.4</ele><time>2026-04-10T14:21:56Z</time></trkpt><trkpt lat="45.76213721157727" lon="8.71581222394671"><ele>262.8</ele><time>2026-04-10T14:21:58Z</time></trkpt><trkpt lat="45.7621829118797" lon="8.715925698370837"><ele>265.2</ele><time>2026-04-10T14:22:00Z</time></trkpt><trkpt lat="45.76223970845706" lon="8.716040726231107"><ele>267.6</ele><time>2026-04-10T14:22:02Z</time></trkpt><trkpt lat="45.762283850255834" lon="8.716118254578756"><ele>270.0</ele><time>2026-04-10T14:22:03Z</time></trkpt><trkpt lat="45.76236678753615" lon="8.716242982313423"><ele>270.0</ele><time>2026-04-10T14:22:05Z</time></trkpt><trkpt lat="45.76241799299541" lon="8.716310865933293"><ele>270.0</ele><time>2026-04-10T14:22:06Z</time></trkpt><trkpt lat="45.762500349628226" lon="8.716446989302705"><ele>270.0</ele><time>2026-04-10T14:22:08Z</time></trkpt><trkpt lat="45.76259189919837" lon="8.716568259170822"><ele>270.0</ele><time>2026-04-10T14:22:10Z</time></trkpt><trkpt lat="45.76265066310147" lon="8.716624648459227"><ele>270.0</ele><time>2026-04-10T14:22:11Z</time></trkpt><trkpt lat="45.7627166678745" lon="8.71666784172928"><ele>271.0</ele><time>2026-04-10T14:22:12Z</time></trkpt><trkpt lat="45.76282143453061" lon="8.716742351694927"><ele>272.0</ele><time>2026-04-10T14:22:14Z</time></trkpt><trkpt lat="45.762896428930134" lon="8.716779280044852"><ele>273.0</ele><time>2026-04-10T14:22:15Z</time></trkpt><trkpt lat="45.76296572610306" lon="8.716795489040424"><ele>274.0</ele><time>2026-04-10T14:22:16Z</time></trkpt><trkpt lat="45.76306426284132" lon="8.71684974304752"><ele>275.0</ele><time>2026-04-10T14:22:18Z</time></trkpt><trkpt lat="45.76314275208613" lon="8.716897486806289"><ele>275.1666666666667</ele><time>2026-04-10T14:22:20Z</time></trkpt><trkpt lat="45.763204644718094" lon="8.71692743523098"><ele>275.33333333333337</ele><time>2026-04-10T14:22:21Z</time></trkpt><trkpt lat="45.76327903562883" lon="8.716965738301113"><ele>275.5</ele><time>2026-04-10T14:22:22Z</time></trkpt><trkpt lat="45.763349668156735" lon="8.71700984077788"><ele>275.6666666666667</ele><time>2026-04-10T14:22:23Z</time></trkpt><trkpt lat="45.763406199458906" lon="8.717064071079024"><ele>275.8333333333333</ele><time>2026-04-10T14:22:24Z</time></trkpt><trkpt lat="45.763513577634534" lon="8.717121660794083"><ele>276.0</ele><time>2026-04-10T14:22:26Z</time></trkpt><trkpt lat="45.76359867852051" lon="8.717146975913353"><ele>276.1666666666667</ele><time>2026-04-10T14:22:28Z</time></trkpt><trkpt lat="45.763675476704165" lon="8.717216599595082"><ele>276.3333333333333</ele><time>2026-04-10T14:22:30Z</time></trkpt><trkpt lat="45.76373376796987" lon="8.717253672372031"><ele>276.5</ele><time>2026-04-10T14:22:31Z</time></trkpt><trkpt lat="45.763818492666196" lon="8.717319631778947"><ele>276.66666666666663</ele><time>2026-04-10T14:22:33Z</time></trkpt><trkpt lat="45.76385990204092" lon="8.717403847279707"><ele>276.8333333333333</ele><time>2026-04-10T14:22:35Z</time></trkpt><trkpt lat="45.763928726397666" lon="8.717468210998362"><ele>277.0</ele><time>2026-04-10T14:22:38Z</time></trkpt><trkpt lat="45.76398324446341" lon="8.71751441605307"><ele>277.0</ele><time>2026-04-10T14:22:46Z</time></trkpt><trkpt lat="45.76390897542504" lon="8.717630655558345"><ele>277.0</ele><time>2026-04-10T14:22:48Z</time></trkpt><trkpt lat="45.763877733655214" lon="8.7177127081606"><ele>277.0</ele><time>2026-04-10T14:22:49Z</time></trkpt><trkpt lat="45.76384723981355" lon="8.717792796342959"><ele>277.0</ele><time>2026-04-10T14:22:50Z</time></trkpt><trkpt lat="45.76379980601972" lon="8.71796136019554"><ele>277.0</ele><time>2026-04-10T14:22:52Z</time></trkpt><trkpt lat="45.76375050876665" lon="8.718022845571449"><ele>277.0</ele><time>2026-04-10T14:22:53Z</time></trkpt><trkpt lat="45.76369756611675" lon="8.718158967567854"><ele>276.8</ele><time>2026-04-10T14:22:55Z</time></trkpt><trkpt lat="45.76365957076323" lon="8.71828407013407"><ele>276.6</ele><time>2026-04-10T14:22:57Z</time></trkpt><trkpt lat="45.76362303286742" lon="8.718378511243849"><ele>276.40000000000003</ele><time>2026-04-10T14:22:58.999Z</time></trkpt><trkpt lat="45.76357609179419" lon="8.718445280045803"><ele>276.2</ele><time>2026-04-10T14:23:01.999Z</time></trkpt><trkpt lat="45.763513090675424" lon="8.718498129423992"><ele>276.0</ele><time>2026-04-10T14:23:07Z</time></trkpt><trkpt lat="45.763356418635084" lon="8.718350567818321"><ele>276.6666666666667</ele><time>2026-04-10T14:23:08Z</time></trkpt><trkpt lat="45.76326763639187" lon="8.718306040144437"><ele>277.3333333333333</ele><time>2026-04-10T14:23:10Z</time></trkpt><trkpt lat="45.76320923102587" lon="8.718271018036711"><ele>278.0</ele><time>2026-04-10T14:23:11Z</time></trkpt><trkpt lat="45.76311024913674" lon="8.718203741502112"><ele>278.66666666666663</ele><time>2026-04-10T14:23:13Z</time></trkpt><trkpt lat="45.76303890220637" lon="8.718167880755724"><ele>279.3333333333333</ele><time>2026-04-10T14:23:46Z</time></trkpt><trkpt lat="45.76297924362573" lon="8.718113637339414"><ele>280.0</ele><time>2026-04-10T14:23:48Z</time></trkpt><trkpt lat="45.7629084476966" lon="8.718090872977013"><ele>280.0</ele><time>2026-04-10T14:23:58Z</time></trkpt><trkpt lat="45.76283294747047" lon="8.718084242975992"><ele>280.0</ele><time>2026-04-10T14:29:14Z</time></trkpt><trkpt lat="45.762785628896054" lon="8.71815873309465"><ele>280.0</ele><time>2026-04-10T14:29:55Z</time></trkpt><trkpt lat="45.76272327061076" lon="8.718140664307024"><ele>280.0</ele><time>2026-04-10T14:29:59Z</time></trkpt><trkpt lat="45.762643919568134" lon="8.71818342709951"><ele>280.0</ele><time>2026-04-10T14:30:02Z</time></trkpt><trkpt lat="45.76256732288531" lon="8.718229631541776"><ele>280.0</ele><time>2026-04-10T14:30:04Z</time></trkpt><trkpt lat="45.762481329106635" lon="8.718281837765378"><ele>283.8</ele><time>2026-04-10T14:30:06Z</time></trkpt><trkpt lat="45.76238958304794" lon="8.71827127979046"><ele>287.6</ele><time>2026-04-10T14:30:08Z</time></trkpt><trkpt lat="45.76229553173421" lon="8.718240678550236"><ele>291.4</ele><time>2026-04-10T14:30:10Z</time></trkpt><trkpt lat="45.76222617377199" lon="8.718214351276849"><ele>295.2</ele><time>2026-04-10T14:30:12Z</time></trkpt><trkpt lat="45.762126819179905" lon="8.718147176118586"><ele>299.0</ele><time>2026-04-10T14:30:24Z</time></trkpt><trkpt lat="45.76204155963602" lon="8.718087689195238"><ele>299.0</ele><time>2026-04-10T14:30:26Z</time></trkpt><trkpt lat="45.76194898442889" lon="8.718081352996078"><ele>299.0</ele><time>2026-04-10T14:30:29Z</time></trkpt><trkpt lat="45.76189150077418" lon="8.718040538921757"><ele>299.0</ele><time>2026-04-10T14:30:31Z</time></trkpt><trkpt lat="45.76180845548862" lon="8.717993181371865"><ele>299.0</ele><time>2026-04-10T14:30:44Z</time></trkpt><trkpt lat="45.76172736715775" lon="8.717979066161263"><ele>299.0</ele><time>2026-04-10T14:30:46Z</time></trkpt><trkpt lat="45.76164675193395" lon="8.717966043457034"><ele>299.0</ele><time>2026-04-10T14:30:48Z</time></trkpt><trkpt lat="45.76154074562396" lon="8.717985381112891"><ele>300.33333333333337</ele><time>2026-04-10T14:30:50Z</time></trkpt><trkpt lat="45.76146499963358" lon="8.717998103853754"><ele>301.6666666666667</ele><time>2026-04-10T14:30:52Z</time></trkpt><trkpt lat="45.76137377559833" lon="8.718039662103122"><ele>303.0</ele><time>2026-04-10T14:30:54Z</time></trkpt><trkpt lat="45.76129755121244" lon="8.718087528147711"><ele>304.3333333333333</ele><time>2026-04-10T14:30:56Z</time></trkpt><trkpt lat="45.76122866835492" lon="8.718149273391557"><ele>305.66666666666663</ele><time>2026-04-10T14:30:58Z</time></trkpt><trkpt lat="45.76115953289639" lon="8.71821919539729"><ele>307.0</ele><time>2026-04-10T14:31:00Z</time></trkpt><trkpt lat="45.761115576438705" lon="8.718305963872236"><ele>307.0</ele><time>2026-04-10T14:31:01Z</time></trkpt><trkpt lat="45.761090577528314" lon="8.718413955068703"><ele>307.0</ele><time>2026-04-10T14:31:02Z</time></trkpt></trkseg></trk></gpx>